M I D A S
Marine Information and Data Acquisition System
Tripno 960 of the Zeeleeuw from 2005-09-22 06:30:24 to 2005-09-22 12:49:48
Back to CruiseResearch ActivitiesStationsMapUnderway DataData graphs

EquipmentUnitsComment
TimeDGPSUTC
LatitudeDGPSDM.mWGS84
LongitudeDGPSDM.mWGS84
TemperatureSBE03/SBE38deg celciusITS90
ConductivitySBE21S/mITS90
SalinitySBE21 Practical Salinity Units
ChlorophylAChelsea fluorimeterg/lCalibrated in Aceton
Missing or incorrect values are displayed as -999
Sea surface data collected by the RV Zeeleeuw from 2005-09-22 06:26:50 to 2005-09-22 13:01:30
                                                                                    Next 1000 lines
Time Latitude Longitude Temperature Conductivity Salinity ChlorophylA
2005-09-22 06:26:59 51°13.6 2°56.102 -999 0.071462 0.391139 -0.241899
2005-09-22 06:27:04 51°13.6 2°56.102 -999 0.071462 0.391139 -0.241899
2005-09-22 06:27:09 51°13.6 2°56.102 -999 0.071462 0.391146 -0.241899
2005-09-22 06:27:15 51°13.6 2°56.102 -999 0.071462 0.391146 -0.241899
2005-09-22 06:27:20 51°13.6 2°56.102 -999 0.071462 0.391152 -0.241899
2005-09-22 06:27:25 51°13.6 2°56.102 -999 0.071462 0.391152 -0.208189
2005-09-22 06:27:30 51°13.6 2°56.102 -999 0.071462 0.391159 -0.208189
2005-09-22 06:27:34 51°13.6 2°56.102 -999 0.071462 0.391159 -0.208189
2005-09-22 06:27:40 51°13.6 2°56.102 -999 0.071462 0.391159 -0.241899
2005-09-22 06:27:44 51°13.6 2°56.102 -999 0.071462 0.391166 -0.241899
2005-09-22 06:27:50 51°13.6 2°56.102 -999 0.071462 0.391166 -0.241899
2005-09-22 06:27:54 51°13.601 2°56.102 -999 0.071462 0.391173 -0.241899
2005-09-22 06:28:00 51°13.6 2°56.102 -999 0.071462 0.391173 -0.241899
2005-09-22 06:28:04 51°13.6 2°56.102 -999 0.071462 0.391173 -0.241899
2005-09-22 06:28:09 51°13.6 2°56.102 -999 0.071462 0.39118 -0.241899
2005-09-22 06:28:14 51°13.6 2°56.102 -999 0.071462 0.39118 -0.241899
2005-09-22 06:28:19 51°13.6 2°56.102 -999 0.071462 0.391187 -0.241899
2005-09-22 06:28:24 51°13.6 2°56.102 -999 0.071462 0.391194 -0.241899
2005-09-22 06:28:29 51°13.6 2°56.102 -999 0.071462 0.391194 -0.241899
2005-09-22 06:28:34 51°13.601 2°56.102 -999 0.071462 0.391194 -0.241899
2005-09-22 06:28:40 51°13.601 2°56.102 -999 0.071462 0.391194 -0.241899
2005-09-22 06:28:44 51°13.601 2°56.102 -999 0.071462 0.391201 -0.241899
2005-09-22 06:28:50 51°13.6 2°56.102 -999 0.071462 0.391208 -0.241899
2005-09-22 06:28:54 51°13.6 2°56.102 -999 0.071462 0.391208 -0.241899
2005-09-22 06:29:00 51°13.6 2°56.102 -999 0.071462 0.391215 -0.241899
2005-09-22 06:29:05 51°13.6 2°56.102 -999 0.071462 0.391215 -0.241899
2005-09-22 06:29:10 51°13.6 2°56.102 -999 0.071462 0.391215 -0.241899
2005-09-22 06:29:14 51°13.6 2°56.102 -999 0.071462 0.391222 -0.208189
2005-09-22 06:29:20 51°13.599 2°56.102 -999 0.071462 0.391222 -0.241899
2005-09-22 06:29:24 51°13.599 2°56.102 -999 0.071462 0.391229 -0.241899
2005-09-22 06:29:30 51°13.599 2°56.102 -999 0.071462 0.391236 -0.241899
2005-09-22 06:29:34 51°13.599 2°56.102 -999 0.071462 0.391236 -0.241899
2005-09-22 06:29:39 51°13.599 2°56.101 -999 0.071462 0.391236 -0.208189
2005-09-22 06:29:44 51°13.599 2°56.1 -999 0.071462 0.391243 -0.208189
2005-09-22 06:29:50 51°13.6 2°56.098 -999 0.071462 0.391243 -0.241899
2005-09-22 06:29:54 51°13.6 2°56.096 -999 0.071462 0.391249 -0.241899
2005-09-22 06:29:59 51°13.601 2°56.093 -999 0.071462 0.391249 -0.241899
2005-09-22 06:30:04 51°13.602 2°56.09 -999 0.071462 0.391249 -0.241899
2005-09-22 06:30:09 51°13.603 2°56.086 -999 0.071462 0.391256 -0.241899
2005-09-22 06:30:14 51°13.605 2°56.081 -999 0.071462 0.391256 -0.241899
2005-09-22 06:30:20 51°13.606 2°56.074 -999 0.071462 0.391263 -0.241899
2005-09-22 06:30:25 51°13.608 2°56.068 -999 0.071462 0.391263 -0.241899
2005-09-22 06:30:30 51°13.61 2°56.062 -999 0.071462 0.39127 -0.241899
2005-09-22 06:30:35 51°13.613 2°56.055 -999 0.071462 0.39127 -0.241899
2005-09-22 06:30:40 51°13.615 2°56.048 -999 0.071462 0.39127 -0.241899
2005-09-22 06:30:45 51°13.617 2°56.04 -999 0.071462 0.391277 -0.241899
2005-09-22 06:30:50 51°13.62 2°56.031 -999 0.071462 0.391284 -0.241899
2005-09-22 06:30:55 51°13.622 2°56.023 -999 0.071462 0.391284 -0.241899
2005-09-22 06:31:00 51°13.625 2°56.015 -999 0.071462 0.391284 -0.241899
2005-09-22 06:31:05 51°13.628 2°56.005 -999 0.071462 0.391284 -0.241899
2005-09-22 06:31:10 51°13.63 2°55.996 -999 0.071462 0.391291 -0.241899
2005-09-22 06:31:15 51°13.633 2°55.986 -999 0.071462 0.391298 -0.241899
2005-09-22 06:31:20 51°13.635 2°55.978 -999 0.071462 0.391298 -0.241899
2005-09-22 06:31:25 51°13.638 2°55.967 -999 0.071462 0.391298 -0.241899
2005-09-22 06:31:30 51°13.641 2°55.957 -999 0.071462 0.391305 -0.241899
2005-09-22 06:31:35 51°13.645 2°55.947 -999 0.071462 0.391305 -0.241899
2005-09-22 06:31:39 51°13.647 2°55.938 -999 0.071462 0.391305 -0.241899
2005-09-22 06:31:45 51°13.651 2°55.926 -999 0.071462 0.391312 -0.241899
2005-09-22 06:31:50 51°13.654 2°55.915 -999 0.071462 0.391319 -0.241899
2005-09-22 06:31:55 51°13.657 2°55.904 -999 0.071462 0.391326 -0.241899
2005-09-22 06:32:00 51°13.66 2°55.895 -999 0.071462 0.391326 -0.241899
2005-09-22 06:32:05 51°13.664 2°55.883 -999 0.071462 0.391326 -0.241899
2005-09-22 06:32:10 51°13.667 2°55.872 -999 0.071462 0.391333 -0.241899
2005-09-22 06:32:15 51°13.671 2°55.862 -999 0.071462 0.391333 -0.241899
2005-09-22 06:32:20 51°13.675 2°55.852 -999 0.071462 0.391333 -0.241899
2005-09-22 06:32:25 51°13.679 2°55.841 -999 0.071462 0.39134 -0.241899
2005-09-22 06:32:30 51°13.683 2°55.83 -999 0.071462 0.391346 -0.241899
2005-09-22 06:32:35 51°13.688 2°55.819 -999 0.071462 0.391346 -0.241899
2005-09-22 06:32:40 51°13.692 2°55.808 -999 0.071462 0.391346 -0.241899
2005-09-22 06:32:45 51°13.696 2°55.798 -999 0.071462 0.391346 -0.241899
2005-09-22 06:32:50 51°13.7 2°55.79 -999 0.071462 0.391353 -0.241899
2005-09-22 06:32:55 51°13.704 2°55.779 -999 0.071462 0.391353 -0.241899
2005-09-22 06:33:00 51°13.707 2°55.771 -999 0.071462 0.391353 -0.208189
2005-09-22 06:33:04 51°13.71 2°55.764 -999 0.071462 0.391353 -0.208189
2005-09-22 06:33:09 51°13.713 2°55.755 -999 0.071462 0.39136 -0.241899
2005-09-22 06:33:14 51°13.717 2°55.747 -999 0.071462 0.391367 -0.241899
2005-09-22 06:33:20 51°13.72 2°55.739 -999 0.071462 0.391367 -0.241899
2005-09-22 06:33:25 51°13.723 2°55.731 -999 0.071462 0.391374 -0.241899
2005-09-22 06:33:30 51°13.725 2°55.724 -999 0.071462 0.391381 -0.241899
2005-09-22 06:33:35 51°13.727 2°55.718 -999 0.071462 0.391381 -0.241899
2005-09-22 06:33:39 51°13.729 2°55.713 -999 0.071462 0.391381 -0.241899
2005-09-22 06:33:44 51°13.73 2°55.707 -999 0.071462 0.391388 -0.241899
2005-09-22 06:33:50 51°13.732 2°55.703 -999 0.071462 0.391395 -0.241899
2005-09-22 06:33:54 51°13.733 2°55.701 -999 0.071462 0.391395 -0.241899
2005-09-22 06:33:59 51°13.734 2°55.699 -999 0.071462 0.391395 -0.241899
2005-09-22 06:34:04 51°13.734 2°55.699 -999 0.071462 0.391402 -0.241899
2005-09-22 06:34:10 51°13.735 2°55.7 -999 0.071462 0.391402 -0.241899
2005-09-22 06:34:14 51°13.736 2°55.702 -999 0.071462 0.391409 -0.241899
2005-09-22 06:34:19 51°13.737 2°55.705 -999 0.071462 0.391416 -0.241899
2005-09-22 06:34:25 51°13.739 2°55.708 -999 0.071462 0.39143 -0.241899
2005-09-22 06:34:30 51°13.741 2°55.712 -999 0.071462 0.391437 -0.241899
2005-09-22 06:34:35 51°13.744 2°55.715 -999 0.071462 0.391437 -0.241899
2005-09-22 06:34:39 51°13.746 2°55.717 -999 0.071462 0.391451 -0.241899
2005-09-22 06:34:45 51°13.748 2°55.72 -999 0.071462 0.391451 -0.241899
2005-09-22 06:34:49 51°13.75 2°55.721 -999 0.071462 0.391451 -0.241899
2005-09-22 06:34:55 51°13.752 2°55.722 -999 0.071462 0.391457 -0.241899
2005-09-22 06:34:59 51°13.752 2°55.722 -999 0.071462 0.391457 -0.241899
2005-09-22 06:35:04 51°13.753 2°55.722 -999 0.071462 0.391457 -0.241899
2005-09-22 06:35:10 51°13.754 2°55.721 -999 0.071462 0.391451 -0.241899
2005-09-22 06:35:15 51°13.754 2°55.72 -999 0.071462 0.391451 -0.241899
2005-09-22 06:35:19 51°13.753 2°55.718 -999 0.071462 0.391451 -0.241899
2005-09-22 06:35:24 51°13.752 2°55.717 -999 0.071462 0.391451 -0.241899
2005-09-22 06:35:30 51°13.751 2°55.715 -999 0.071462 0.391451 -0.241899
2005-09-22 06:35:35 51°13.749 2°55.713 -999 0.071462 0.391451 -0.241899
2005-09-22 06:35:40 51°13.746 2°55.71 -999 0.071462 0.391451 -0.241899
2005-09-22 06:35:45 51°13.744 2°55.709 -999 0.071462 0.391451 -0.241899
2005-09-22 06:35:50 51°13.741 2°55.706 -999 0.071462 0.391457 -0.241899
2005-09-22 06:35:55 51°13.738 2°55.705 -999 0.071462 0.391457 -0.241899
2005-09-22 06:36:00 51°13.736 2°55.703 -999 0.071462 0.391464 -0.241899
2005-09-22 06:36:05 51°13.733 2°55.701 -999 0.071462 0.391464 -0.241899
2005-09-22 06:36:10 51°13.731 2°55.7 -999 0.071462 0.391464 -0.241899
2005-09-22 06:36:15 51°13.73 2°55.7 -999 0.071462 0.391464 -0.241899
2005-09-22 06:36:19 51°13.73 2°55.699 -999 0.071462 0.391471 -0.241899
2005-09-22 06:36:25 51°13.73 2°55.698 -999 0.071462 0.391478 -0.241899
2005-09-22 06:36:30 51°13.731 2°55.697 -999 0.071462 0.391478 -0.241899
2005-09-22 06:36:35 51°13.733 2°55.696 -999 0.071462 0.391478 -0.241899
2005-09-22 06:36:39 51°13.735 2°55.694 -999 0.071462 0.391485 -0.241899
2005-09-22 06:36:45 51°13.738 2°55.692 -999 0.071462 0.391492 -0.241899
2005-09-22 06:36:50 51°13.742 2°55.69 -999 0.071462 0.391499 -0.241899
2005-09-22 06:36:54 51°13.746 2°55.687 -999 0.071462 0.391499 -0.241899
2005-09-22 06:36:58 51°13.751 2°55.685 -999 0.071462 0.391506 -0.241899
2005-09-22 06:37:05 51°13.759 2°55.68 -999 0.071462 0.391506 -0.241899
2005-09-22 06:37:10 51°13.767 2°55.675 -999 0.071462 0.391506 -0.241899
2005-09-22 06:37:14 51°13.774 2°55.671 -999 0.071462 0.391506 -0.241899
2005-09-22 06:37:20 51°13.785 2°55.664 -999 0.071359 0.39093 -0.241899
2005-09-22 06:37:24 51°13.792 2°55.659 -999 0.071462 0.391513 -0.241899
2005-09-22 06:37:30 51°13.804 2°55.652 -999 0.071462 0.39152 -0.241899
2005-09-22 06:37:34 51°13.813 2°55.645 -999 0.071462 0.39152 -0.241899
2005-09-22 06:37:40 51°13.825 2°55.637 -999 0.071462 0.391527 -0.241899
2005-09-22 06:37:45 51°13.837 2°55.63 -999 0.071462 0.391527 -0.241899
2005-09-22 06:37:50 51°13.848 2°55.622 -999 0.071462 0.391527 -0.241899
2005-09-22 06:37:55 51°13.86 2°55.615 -999 0.071462 0.391534 -0.241899
2005-09-22 06:38:00 51°13.872 2°55.607 -999 0.071359 0.390951 -0.241899
2005-09-22 06:38:04 51°13.882 2°55.6 -999 0.071359 0.390951 -0.241899
2005-09-22 06:38:09 51°13.893 2°55.593 -999 0.071462 0.391548 -0.241899
2005-09-22 06:38:14 51°13.905 2°55.584 -999 0.071359 0.390965 -0.241899
2005-09-22 06:38:19 51°13.915 2°55.577 -999 0.071359 0.390972 -0.241899
2005-09-22 06:38:25 51°13.927 2°55.569 -999 0.071462 0.391555 -0.241899
2005-09-22 06:38:30 51°13.938 2°55.562 -999 0.071359 0.390979 -0.241899
2005-09-22 06:38:34 51°13.947 2°55.555 -999 0.071359 0.390979 -0.241899
2005-09-22 06:38:40 51°13.958 2°55.548 -999 0.071462 0.391568 -0.241899
2005-09-22 06:38:45 51°13.968 2°55.541 -999 0.071462 0.391568 -0.241899
2005-09-22 06:38:50 51°13.977 2°55.534 -999 0.071359 0.390993 -0.241899
2005-09-22 06:38:54 51°13.986 2°55.528 -999 0.071462 0.391575 -0.241899
2005-09-22 06:38:59 51°13.996 2°55.521 -999 0.071359 0.391 -0.241899
2005-09-22 06:39:04 51°14.004 2°55.515 -999 0.071359 0.391 -0.241899
2005-09-22 06:39:10 51°14.015 2°55.508 -999 0.071359 0.391 -0.241899
2005-09-22 06:39:15 51°14.025 2°55.501 -999 0.071359 0.391007 -0.241899
2005-09-22 06:39:19 51°14.033 2°55.495 -999 0.071359 0.391014 -0.241899
2005-09-22 06:39:24 51°14.041 2°55.489 -999 0.071359 0.391014 -0.241899
2005-09-22 06:39:29 51°14.051 2°55.482 -999 0.071359 0.391014 -0.241899
2005-09-22 06:39:34 51°14.06 2°55.475 -999 0.071359 0.391014 -0.241899
2005-09-22 06:39:40 51°14.07 2°55.468 -999 0.071462 0.391603 -0.241899
2005-09-22 06:39:44 51°14.078 2°55.462 -999 0.071462 0.391603 -0.241899
2005-09-22 06:39:49 51°14.086 2°55.455 -999 0.071359 0.391027 -0.241899
2005-09-22 06:39:55 51°14.096 2°55.448 -999 0.071359 0.391027 -0.241899
2005-09-22 06:39:59 51°14.104 2°55.441 -999 0.071359 0.391027 -0.241899
2005-09-22 06:40:04 51°14.112 2°55.435 -999 0.071359 0.391027 -0.241899
2005-09-22 06:40:09 51°14.121 2°55.427 -999 0.071359 0.391034 -0.241899
2005-09-22 06:40:14 51°14.13 2°55.42 -999 0.071359 0.391041 -0.241899
2005-09-22 06:40:20 51°14.139 2°55.412 -999 0.071359 0.391041 -0.241899
2005-09-22 06:40:25 51°14.148 2°55.404 -999 0.071359 0.391048 -0.241899
2005-09-22 06:40:29 51°14.156 2°55.398 -999 0.071359 0.391055 -0.241899
2005-09-22 06:40:34 51°14.164 2°55.391 -999 0.071359 0.391055 -0.241899
2005-09-22 06:40:40 51°14.173 2°55.382 -999 0.071359 0.391055 -0.241899
2005-09-22 06:40:44 51°14.179 2°55.375 -999 0.071359 0.391062 -0.241899
2005-09-22 06:40:49 51°14.189 2°55.366 -999 0.071359 0.391062 -0.241899
2005-09-22 06:40:54 51°14.196 2°55.357 -999 0.071359 0.391069 -0.241899
2005-09-22 06:40:59 51°14.204 2°55.347 -999 0.071359 0.391069 -0.241899
2005-09-22 06:41:05 51°14.212 2°55.337 -999 0.071359 0.391069 -0.241899
2005-09-22 06:41:09 51°14.219 2°55.328 -999 0.071359 0.391076 -0.241899
2005-09-22 06:41:15 51°14.227 2°55.317 -999 0.071359 0.391076 -0.241899
2005-09-22 06:41:19 51°14.234 2°55.308 -999 0.071359 0.391083 -0.241899
2005-09-22 06:41:24 51°14.24 2°55.299 -999 0.071359 0.391083 -0.241899
2005-09-22 06:41:30 51°14.248 2°55.286 -999 0.071359 0.39109 -0.241899
2005-09-22 06:41:35 51°14.255 2°55.275 -999 0.071359 0.39109 -0.241899
2005-09-22 06:41:40 51°14.262 2°55.264 -999 0.071359 0.39109 -0.241899
2005-09-22 06:41:44 51°14.267 2°55.255 -999 0.071359 0.391097 -0.241899
2005-09-22 06:41:49 51°14.275 2°55.241 -999 0.071359 0.391097 -0.241899
2005-09-22 06:41:54 51°14.282 2°55.228 -999 0.071359 0.391104 -0.241899
2005-09-22 06:42:00 51°14.289 2°55.212 -999 0.071359 0.391104 -0.241899
2005-09-22 06:42:03 51°14.294 2°55.202 -999 0.071359 0.391104 -0.241899
2005-09-22 06:42:09 51°14.303 2°55.184 -999 0.071359 0.391111 -0.241899
2005-09-22 06:42:15 51°14.311 2°55.166 -999 0.071359 0.391111 -0.241899
2005-09-22 06:42:18 51°14.316 2°55.155 -999 0.071359 0.391111 -0.241899
2005-09-22 06:42:25 51°14.326 2°55.133 -999 0.071359 0.391111 -0.241899
2005-09-22 06:42:29 51°14.333 2°55.118 -999 0.071359 0.391118 -0.241899
2005-09-22 06:42:34 51°14.341 2°55.101 -999 0.071359 0.391118 -0.241899
2005-09-22 06:42:40 51°14.349 2°55.082 -999 0.071359 0.391125 -0.241899
2005-09-22 06:42:44 51°14.356 2°55.066 -999 0.071359 0.391125 -0.241899
2005-09-22 06:42:50 51°14.365 2°55.047 -999 0.071359 0.391131 -0.241899
2005-09-22 06:42:54 51°14.372 2°55.031 -999 0.071359 0.391131 -0.241899
2005-09-22 06:42:58 51°14.379 2°55.017 -999 0.071359 0.391131 -0.241899
2005-09-22 06:43:04 51°14.39 2°54.997 -999 0.071359 0.391131 -0.241899
2005-09-22 06:43:09 51°14.4 2°54.98 -999 0.071359 0.391138 -0.241899
2005-09-22 06:43:14 51°14.41 2°54.964 -999 0.071359 0.391138 -0.241899
2005-09-22 06:43:18 51°14.418 2°54.951 -999 0.071359 0.391145 -0.241899
2005-09-22 06:43:24 51°14.429 2°54.93 -999 0.071359 0.391152 -0.241899
2005-09-22 06:43:30 51°14.44 2°54.912 -999 0.071359 0.391152 -0.241899
2005-09-22 06:43:34 51°14.449 2°54.897 -999 0.071359 0.391152 -0.241899
2005-09-22 06:43:40 51°14.462 2°54.879 -999 0.071359 0.391152 -0.241899
2005-09-22 06:43:44 51°14.472 2°54.866 -999 0.071359 0.391159 -0.241899
2005-09-22 06:43:49 51°14.484 2°54.849 -999 0.071359 0.391159 -0.241899
2005-09-22 06:43:55 51°14.498 2°54.832 -999 0.071359 0.391166 -0.241899
2005-09-22 06:44:00 51°14.511 2°54.818 -999 0.071359 0.391166 -0.241899
2005-09-22 06:44:04 51°14.524 2°54.806 -999 0.071359 0.391166 -0.241899
2005-09-22 06:44:09 51°14.537 2°54.792 -999 0.071359 0.391173 -0.241899
2005-09-22 06:44:14 51°14.552 2°54.778 -999 0.071359 0.391173 -0.241899
2005-09-22 06:44:19 51°14.566 2°54.765 -999 0.071359 0.39118 -0.241899
2005-09-22 06:44:24 51°14.58 2°54.753 -999 0.071359 0.39118 -0.241899
2005-09-22 06:44:29 51°14.596 2°54.74 -999 0.071359 0.391187 -0.241899
2005-09-22 06:44:35 51°14.613 2°54.726 -999 0.071359 0.391187 -0.241899
2005-09-22 06:44:40 51°14.629 2°54.714 -999 0.071359 0.391187 -0.241899
2005-09-22 06:44:44 51°14.642 2°54.704 -999 0.071359 0.391194 -0.241899
2005-09-22 06:44:49 51°14.66 2°54.69 -999 0.071359 0.391201 -0.241899
2005-09-22 06:44:54 51°14.675 2°54.677 -999 0.071359 0.391208 -0.241899
2005-09-22 06:44:59 51°14.691 2°54.664 -999 0.071359 0.391208 -0.241899
2005-09-22 06:45:05 51°14.709 2°54.649 -999 0.071359 0.391208 -0.241899
2005-09-22 06:45:09 51°14.723 2°54.636 -999 0.071359 0.391215 -0.241899
2005-09-22 06:45:15 51°14.74 2°54.622 -999 0.071359 0.391215 -0.241899
2005-09-22 06:45:19 51°14.754 2°54.61 -999 0.071359 0.391222 -0.241899
2005-09-22 06:45:24 51°14.769 2°54.597 -999 0.071359 0.391229 -0.241899
2005-09-22 06:45:30 51°14.788 2°54.581 -999 0.071359 0.391229 -0.241899
2005-09-22 06:45:34 51°14.802 2°54.569 -999 0.071359 0.391229 -0.241899
2005-09-22 06:45:40 51°14.82 2°54.554 -999 0.071359 0.391229 -0.241899
2005-09-22 06:45:44 51°14.834 2°54.542 -999 0.071359 0.391229 -0.241899
2005-09-22 06:45:50 51°14.852 2°54.528 -999 0.071359 0.391236 -0.241899
2005-09-22 06:45:54 51°14.867 2°54.516 -999 0.071359 0.391236 -0.241899
2005-09-22 06:45:59 51°14.881 2°54.505 -999 0.071359 0.391243 -0.241899
2005-09-22 06:46:04 51°14.899 2°54.491 -999 0.071359 0.391243 -0.241899
2005-09-22 06:46:10 51°14.917 2°54.477 -999 0.071359 0.391249 -0.241899
2005-09-22 06:46:14 51°14.932 2°54.465 -999 0.071359 0.391249 -0.241899
2005-09-22 06:46:20 51°14.949 2°54.45 -999 0.071359 0.391256 -0.241899
2005-09-22 06:46:24 51°14.962 2°54.439 -999 0.071359 0.391263 -0.241899
2005-09-22 06:46:29 51°14.98 2°54.424 -999 0.071359 0.391263 -0.241899
2005-09-22 06:46:34 51°14.995 2°54.409 -999 0.071359 0.391263 -0.241899
2005-09-22 06:46:39 51°15.011 2°54.395 -999 0.071359 0.39127 -0.241899
2005-09-22 06:46:45 51°15.028 2°54.379 -999 0.071359 0.39127 -0.241899
2005-09-22 06:46:50 51°15.043 2°54.364 -999 0.071359 0.39127 -0.241899
2005-09-22 06:46:54 51°15.057 2°54.351 -999 0.071359 0.39127 -0.241899
2005-09-22 06:47:00 51°15.074 2°54.335 -999 0.071359 0.39127 -0.241899
2005-09-22 06:47:04 51°15.087 2°54.323 -999 0.071359 0.39127 -0.241899
2005-09-22 06:47:09 51°15.105 2°54.308 -999 0.071359 0.39127 -0.241899
2005-09-22 06:47:14 51°15.121 2°54.295 -999 0.071359 0.391277 -0.241899
2005-09-22 06:47:19 51°15.137 2°54.282 -999 0.071359 0.391284 -0.241899
2005-09-22 06:47:25 51°15.155 2°54.268 -999 0.071359 0.391284 -0.241899
2005-09-22 06:47:30 51°15.172 2°54.255 -999 0.071359 0.391291 -0.241899
2005-09-22 06:47:34 51°15.187 2°54.243 -999 0.071359 0.391291 -0.241899
2005-09-22 06:47:40 51°15.205 2°54.229 -999 0.071359 0.391298 -0.241899
2005-09-22 06:47:45 51°15.222 2°54.216 -999 0.071359 0.391298 -0.241899
2005-09-22 06:47:50 51°15.239 2°54.203 -999 0.071359 0.391305 -0.241899
2005-09-22 06:47:54 51°15.254 2°54.191 -999 0.071359 0.391312 -0.241899
2005-09-22 06:48:00 51°15.272 2°54.176 -999 0.071359 0.391312 -0.241899
2005-09-22 06:48:04 51°15.287 2°54.163 -999 0.071359 0.391312 -0.241899
2005-09-22 06:48:10 51°15.305 2°54.147 -999 0.071359 0.391312 -0.241899
2005-09-22 06:48:14 51°15.319 2°54.133 -999 0.071359 0.391319 -0.241899
2005-09-22 06:48:20 51°15.337 2°54.116 -999 0.071359 0.391319 -0.241899
2005-09-22 06:48:25 51°15.353 2°54.1 -999 0.071359 0.391319 -0.241899
2005-09-22 06:48:30 51°15.369 2°54.084 -999 0.071359 0.391326 -0.241899
2005-09-22 06:48:34 51°15.383 2°54.07 -999 0.071359 0.391326 -0.241899
2005-09-22 06:48:39 51°15.4 2°54.054 -999 0.071359 0.391326 -0.241899
2005-09-22 06:48:44 51°15.416 2°54.039 -999 0.071359 0.391326 -0.241899
2005-09-22 06:48:50 51°15.434 2°54.023 -999 0.071359 0.391333 -0.241899
2005-09-22 06:48:55 51°15.451 2°54.008 -999 0.071359 0.391333 -0.241899
2005-09-22 06:48:59 51°15.465 2°53.995 -999 0.071359 0.39134 -0.241899
2005-09-22 06:49:04 51°15.48 2°53.982 -999 0.071359 0.39134 -0.241899
2005-09-22 06:49:10 51°15.5 2°53.966 -999 0.071359 0.391347 -0.241899
2005-09-22 06:49:15 51°15.517 2°53.952 -999 0.071359 0.391354 -0.241899
2005-09-22 06:49:20 51°15.533 2°53.937 -999 0.071359 0.391361 -0.241899
2005-09-22 06:49:24 51°15.546 2°53.925 -999 0.071359 0.391361 -0.241899
2005-09-22 06:49:30 51°15.566 2°53.908 -999 0.071359 0.391368 -0.241899
2005-09-22 06:49:34 51°15.581 2°53.895 -999 0.071359 0.391368 -0.241899
2005-09-22 06:49:39 51°15.597 2°53.88 -999 0.071359 0.391368 -0.241899
2005-09-22 06:49:44 51°15.613 2°53.866 -999 0.071359 0.391374 -0.241899
2005-09-22 06:49:49 51°15.629 2°53.851 -999 0.071359 0.391374 -0.241899
2005-09-22 06:49:54 51°15.646 2°53.837 -999 0.071359 0.391374 -0.241899
2005-09-22 06:49:58 51°15.659 2°53.825 -999 0.071359 0.391374 -0.241899
2005-09-22 06:50:05 51°15.68 2°53.806 -999 0.071359 0.391374 -0.241899
2005-09-22 06:50:10 51°15.698 2°53.79 -999 0.071359 0.391381 -0.241899
2005-09-22 06:50:14 51°15.711 2°53.779 -999 0.071359 0.391381 -0.241899
2005-09-22 06:50:19 51°15.727 2°53.765 -999 0.071359 0.391388 -0.241899
2005-09-22 06:50:24 51°15.744 2°53.751 -999 0.071359 0.391388 -0.241899
2005-09-22 06:50:30 51°15.761 2°53.735 -999 0.071359 0.391395 -0.241899
2005-09-22 06:50:34 51°15.776 2°53.723 -999 0.071359 0.391395 -0.241899
2005-09-22 06:50:39 51°15.792 2°53.709 -999 0.071359 0.391402 -0.241899
2005-09-22 06:50:44 51°15.807 2°53.696 -999 0.071359 0.391402 -0.241899
2005-09-22 06:50:50 51°15.827 2°53.679 -999 0.071359 0.391409 -0.241899
2005-09-22 06:50:55 51°15.845 2°53.663 -999 0.071359 0.391416 -0.241899
2005-09-22 06:51:00 51°15.859 2°53.65 -999 0.071359 0.391416 -0.241899
2005-09-22 06:51:03 51°15.87 2°53.64 -999 0.071359 0.391416 -0.241899
2005-09-22 06:51:10 51°15.892 2°53.622 -999 0.071359 0.391416 -0.241899
2005-09-22 06:51:15 51°15.908 2°53.608 -999 0.071359 0.391423 -0.241899
2005-09-22 06:51:20 51°15.925 2°53.594 -999 0.071359 0.39143 -0.241899
2005-09-22 06:51:24 51°15.939 2°53.581 -999 0.071359 0.39143 -0.241899
2005-09-22 06:51:29 51°15.955 2°53.566 -999 0.071359 0.39143 -0.241899
2005-09-22 06:51:35 51°15.973 2°53.55 -999 0.071359 0.39143 -0.241899
2005-09-22 06:51:39 51°15.988 2°53.538 -999 0.071359 0.39143 -0.241899
2005-09-22 06:51:45 51°16.006 2°53.522 -999 0.071359 0.391437 -0.241899
2005-09-22 06:51:50 51°16.022 2°53.508 -999 0.071359 0.391437 -0.241899
2005-09-22 06:51:54 51°16.037 2°53.496 -999 0.071359 0.391444 -0.241899
2005-09-22 06:51:59 51°16.054 2°53.482 -999 0.071359 0.391444 -0.241899
2005-09-22 06:52:05 51°16.072 2°53.466 -999 0.071359 0.391444 -0.241899
2005-09-22 06:52:10 51°16.088 2°53.453 -999 0.071359 0.391451 -0.241899
2005-09-22 06:52:15 51°16.105 2°53.439 -999 0.071359 0.391451 -0.241899
2005-09-22 06:52:19 51°16.118 2°53.429 -999 0.071256 0.390875 -0.241899
2005-09-22 06:52:25 51°16.138 2°53.414 -999 0.071359 0.391458 -0.241899
2005-09-22 06:52:30 51°16.157 2°53.399 -999 0.071359 0.391465 -0.241899
2005-09-22 06:52:34 51°16.171 2°53.388 -999 0.071359 0.391465 -0.241899
2005-09-22 06:52:40 51°16.189 2°53.373 -999 0.071256 0.390888 -0.241899
2005-09-22 06:52:45 51°16.206 2°53.36 -999 0.071359 0.391472 -0.241899
2005-09-22 06:52:49 51°16.22 2°53.348 -999 0.071359 0.391472 -0.241899
2005-09-22 06:52:54 51°16.237 2°53.334 -999 0.071256 0.390888 -0.241899
2005-09-22 06:52:59 51°16.254 2°53.321 -999 0.071256 0.390895 -0.241899
2005-09-22 06:53:04 51°16.271 2°53.307 -999 0.071256 0.390895 -0.241899
2005-09-22 06:53:10 51°16.289 2°53.292 -999 0.071256 0.390895 -0.241899
2005-09-22 06:53:14 51°16.305 2°53.28 -999 0.071256 0.390902 -0.241899
2005-09-22 06:53:20 51°16.323 2°53.266 -999 0.071256 0.390902 -0.241899
2005-09-22 06:53:24 51°16.338 2°53.254 -999 0.071359 0.391493 -0.241899
2005-09-22 06:53:30 51°16.358 2°53.238 -999 0.071256 0.390916 -0.241899
2005-09-22 06:53:34 51°16.372 2°53.227 -999 0.071256 0.390916 -0.241899
2005-09-22 06:53:40 51°16.39 2°53.212 -999 0.071256 0.390916 -0.241899
2005-09-22 06:53:44 51°16.405 2°53.2 -999 0.071256 0.390923 -0.241899
2005-09-22 06:53:49 51°16.422 2°53.187 -999 0.071256 0.390923 -0.241899
2005-09-22 06:53:54 51°16.439 2°53.173 -999 0.071256 0.390923 -0.241899
2005-09-22 06:53:59 51°16.455 2°53.159 -999 0.071256 0.39093 -0.241899
2005-09-22 06:54:04 51°16.47 2°53.147 -999 0.071256 0.39093 -0.241899
2005-09-22 06:54:10 51°16.49 2°53.131 -999 0.071256 0.390937 -0.241899
2005-09-22 06:54:14 51°16.505 2°53.119 -999 0.071256 0.390937 -0.241899
2005-09-22 06:54:19 51°16.521 2°53.105 -999 0.071256 0.390944 -0.241899
2005-09-22 06:54:25 51°16.539 2°53.089 -999 0.071256 0.390944 -0.241899
2005-09-22 06:54:30 51°16.556 2°53.075 -999 0.071256 0.390951 -0.241899
2005-09-22 06:54:34 51°16.571 2°53.062 -999 0.071256 0.390951 -0.241899
2005-09-22 06:54:39 51°16.587 2°53.047 -999 0.071256 0.390951 -0.241899
2005-09-22 06:54:45 51°16.605 2°53.031 -999 0.071256 0.390951 -0.241899
2005-09-22 06:54:50 51°16.621 2°53.017 -999 0.071256 0.390958 -0.241899
2005-09-22 06:54:54 51°16.636 2°53.004 -999 0.071256 0.390958 -0.241899
2005-09-22 06:54:58 51°16.65 2°52.993 -999 0.071256 0.390965 -0.241899
2005-09-22 06:55:05 51°16.672 2°52.972 -999 0.071256 0.390965 -0.241899
2005-09-22 06:55:10 51°16.687 2°52.959 -999 0.071256 0.390965 -0.241899
2005-09-22 06:55:14 51°16.702 2°52.946 -999 0.071256 0.390965 -0.241899
2005-09-22 06:55:19 51°16.718 2°52.932 -999 0.071256 0.390972 -0.241899
2005-09-22 06:55:24 51°16.735 2°52.918 -999 0.071256 0.390972 -0.241899
2005-09-22 06:55:30 51°16.753 2°52.904 -999 0.071256 0.390972 -0.241899
2005-09-22 06:55:34 51°16.768 2°52.891 -999 0.071256 0.390972 -0.241899
2005-09-22 06:55:40 51°16.786 2°52.877 -999 0.071256 0.390979 -0.241899
2005-09-22 06:55:44 51°16.801 2°52.864 -999 0.071256 0.390986 -0.241899
2005-09-22 06:55:50 51°16.82 2°52.847 -999 0.071256 0.390986 -0.241899
2005-09-22 06:55:55 51°16.835 2°52.834 -999 0.071256 0.390993 -0.241899
2005-09-22 06:56:00 51°16.852 2°52.82 -999 0.071256 0.390993 -0.241899
2005-09-22 06:56:04 51°16.866 2°52.808 -999 0.071256 0.390993 -0.241899
2005-09-22 06:56:09 51°16.883 2°52.795 -999 0.071256 0.391 -0.241899
2005-09-22 06:56:14 51°16.9 2°52.781 -999 0.071256 0.391 -0.241899
2005-09-22 06:56:19 51°16.916 2°52.768 -999 0.071256 0.391 -0.241899
2005-09-22 06:56:25 51°16.934 2°52.752 -999 0.071256 0.391006 -0.241899
2005-09-22 06:56:30 51°16.95 2°52.739 -999 0.071256 0.391006 -0.241899
2005-09-22 06:56:34 51°16.965 2°52.726 -999 0.071256 0.391006 -0.241899
2005-09-22 06:56:40 51°16.983 2°52.71 -999 0.071256 0.391013 -0.241899
2005-09-22 06:56:44 51°16.996 2°52.698 -999 0.071256 0.39102 -0.241899
2005-09-22 06:56:49 51°17.014 2°52.682 -999 0.071256 0.39102 -0.241899
2005-09-22 06:56:55 51°17.032 2°52.665 -999 0.071256 0.39102 -0.241899
2005-09-22 06:56:59 51°17.045 2°52.654 -999 0.071256 0.391027 -0.241899
2005-09-22 06:57:05 51°17.064 2°52.635 -999 0.071256 0.391027 -0.241899
2005-09-22 06:57:10 51°17.081 2°52.621 -999 0.071256 0.391027 -0.241899
2005-09-22 06:57:14 51°17.096 2°52.609 -999 0.071256 0.391034 -0.241899
2005-09-22 06:57:19 51°17.112 2°52.594 -999 0.071256 0.391034 -0.241899
2005-09-22 06:57:24 51°17.127 2°52.581 -999 0.071256 0.391034 -0.241899
2005-09-22 06:57:30 51°17.146 2°52.563 -999 0.071256 0.391041 -0.241899
2005-09-22 06:57:35 51°17.162 2°52.549 -999 0.071256 0.391041 -0.241899
2005-09-22 06:57:40 51°17.178 2°52.534 -999 0.071256 0.391041 -0.241899
2005-09-22 06:57:44 51°17.193 2°52.521 -999 0.071256 0.391048 -0.241899
2005-09-22 06:57:50 51°17.211 2°52.504 -999 0.071256 0.391055 -0.241899
2005-09-22 06:57:54 51°17.225 2°52.491 -999 0.071256 0.391055 -0.241899
2005-09-22 06:57:59 51°17.241 2°52.476 -999 0.071256 0.391055 -0.241899
2005-09-22 06:58:04 51°17.256 2°52.462 -999 0.071256 0.391055 -0.241899
2005-09-22 06:58:09 51°17.274 2°52.446 -999 0.071256 0.391062 -0.241899
2005-09-22 06:58:14 51°17.29 2°52.43 -999 0.071256 0.391062 -0.241899
2005-09-22 06:58:20 51°17.308 2°52.414 -999 0.071256 0.391062 -0.241899
2005-09-22 06:58:23 51°17.32 2°52.403 -999 0.071256 0.391069 -0.241899
2005-09-22 06:58:30 51°17.341 2°52.383 -999 0.071256 0.391076 -0.241899
2005-09-22 06:58:34 51°17.355 2°52.369 -999 0.071256 0.391076 -0.241899
2005-09-22 06:58:40 51°17.373 2°52.352 -999 0.071256 0.391076 -0.241899
2005-09-22 06:58:43 51°17.384 2°52.341 -999 0.071256 0.391083 -0.241899
2005-09-22 06:58:49 51°17.403 2°52.322 -999 0.071256 0.391083 -0.241899
2005-09-22 06:58:54 51°17.419 2°52.306 -999 0.071256 0.391083 -0.241899
2005-09-22 06:59:00 51°17.437 2°52.289 -999 0.071256 0.39109 -0.241899
2005-09-22 06:59:05 51°17.453 2°52.273 -999 0.071256 0.39109 -0.241899
2005-09-22 06:59:10 51°17.469 2°52.259 -999 0.071256 0.39109 -0.241899
2005-09-22 06:59:14 51°17.483 2°52.245 -999 0.071256 0.391097 -0.241899
2005-09-22 06:59:19 51°17.5 2°52.231 -999 0.071256 0.391097 -0.241899
2005-09-22 06:59:25 51°17.519 2°52.216 -999 0.071256 0.391097 -0.241899
2005-09-22 06:59:30 51°17.535 2°52.203 -999 0.071256 0.391104 -0.241899
2005-09-22 06:59:34 51°17.55 2°52.191 -999 0.071256 0.391104 -0.241899
2005-09-22 06:59:39 51°17.567 2°52.177 -999 0.071256 0.391104 -0.241899
2005-09-22 06:59:44 51°17.583 2°52.163 -999 0.071256 0.391111 -0.241899
2005-09-22 06:59:49 51°17.6 2°52.149 -999 0.071256 0.391118 -0.241899
2005-09-22 06:59:54 51°17.617 2°52.135 -999 0.071256 0.391118 -0.241899
2005-09-22 07:00:00 51°17.634 2°52.12 -999 0.071256 0.391125 -0.241899
2005-09-22 07:00:04 51°17.648 2°52.108 -999 0.071256 0.391125 -0.241899
2005-09-22 07:00:10 51°17.667 2°52.091 -999 0.071256 0.391125 -0.241899
2005-09-22 07:00:15 51°17.684 2°52.077 -999 0.071256 0.391125 -0.241899
2005-09-22 07:00:20 51°17.7 2°52.062 -999 0.071256 0.391132 -0.241899
2005-09-22 07:00:24 51°17.714 2°52.048 -999 0.071256 0.391139 -0.241899
2005-09-22 07:00:30 51°17.732 2°52.031 -999 0.071256 0.391132 -0.241899
2005-09-22 07:00:35 51°17.748 2°52.017 -999 0.071256 0.391132 -0.241899
2005-09-22 07:00:40 51°17.765 2°52.002 -999 0.071256 0.391139 -0.241899
2005-09-22 07:00:44 51°17.777 2°51.991 -999 0.071256 0.391139 -0.241899
2005-09-22 07:00:49 51°17.795 2°51.975 -999 0.071256 0.391145 -0.241899
2005-09-22 07:00:54 51°17.812 2°51.961 -999 0.071256 0.391152 -0.241899
2005-09-22 07:00:59 51°17.828 2°51.947 -999 0.071256 0.391152 -0.241899
2005-09-22 07:01:05 51°17.846 2°51.93 -999 0.071256 0.391152 -0.241899
2005-09-22 07:01:09 51°17.861 2°51.917 -999 0.071256 0.391159 -0.241899
2005-09-22 07:01:14 51°17.877 2°51.903 -999 0.071256 0.391159 -0.241899
2005-09-22 07:01:18 51°17.89 2°51.891 -999 0.071256 0.391166 -0.241899
2005-09-22 07:01:25 51°17.913 2°51.871 -999 0.071256 0.391166 -0.241899
2005-09-22 07:01:30 51°17.928 2°51.858 -999 0.071256 0.391166 -0.241899
2005-09-22 07:01:34 51°17.943 2°51.845 -999 0.071256 0.391166 -0.241899
2005-09-22 07:01:38 51°17.956 2°51.833 -999 0.071256 0.391166 -0.241899
2005-09-22 07:01:43 51°17.973 2°51.819 -999 0.071256 0.391173 -0.241899
2005-09-22 07:01:50 51°17.994 2°51.801 -999 0.071256 0.391173 -0.241899
2005-09-22 07:01:54 51°18.009 2°51.788 -999 0.071256 0.39118 -0.241899
2005-09-22 07:01:59 51°18.023 2°51.774 -999 0.071256 0.39118 -0.241899
2005-09-22 07:02:04 51°18.042 2°51.759 -999 0.071256 0.39118 -0.241899
2005-09-22 07:02:09 51°18.058 2°51.745 -999 0.071256 0.391187 -0.241899
2005-09-22 07:02:15 51°18.076 2°51.729 -999 0.071256 0.391187 -0.241899
2005-09-22 07:02:20 51°18.093 2°51.715 -999 0.071256 0.391187 -0.241899
2005-09-22 07:02:24 51°18.107 2°51.704 -999 0.071256 0.391194 -0.241899
2005-09-22 07:02:30 51°18.126 2°51.688 -999 0.071256 0.391201 -0.241899
2005-09-22 07:02:34 51°18.141 2°51.675 -999 0.071256 0.391201 -0.241899
2005-09-22 07:02:40 51°18.159 2°51.659 -999 0.071256 0.391201 -0.241899
2005-09-22 07:02:45 51°18.176 2°51.644 -999 0.071256 0.391208 -0.241899
2005-09-22 07:02:49 51°18.191 2°51.632 -999 0.071256 0.391215 -0.241899
2005-09-22 07:02:55 51°18.209 2°51.616 -999 0.071256 0.391215 -0.241899
2005-09-22 07:02:59 51°18.224 2°51.603 -999 0.071256 0.391215 -0.241899
2005-09-22 07:03:04 51°18.239 2°51.59 -999 0.071256 0.391215 -0.241899
2005-09-22 07:03:10 51°18.259 2°51.573 -999 0.071256 0.391222 -0.241899
2005-09-22 07:03:14 51°18.274 2°51.56 -999 0.071256 0.391222 -0.241899
2005-09-22 07:03:18 51°18.287 2°51.549 -999 0.071256 0.391222 -0.241899
2005-09-22 07:03:25 51°18.309 2°51.53 -999 0.071256 0.391222 -0.241899
2005-09-22 07:03:30 51°18.326 2°51.516 -999 0.071256 0.391229 -0.241899
2005-09-22 07:03:34 51°18.341 2°51.504 -999 0.071256 0.391229 -0.241899
2005-09-22 07:03:40 51°18.359 2°51.488 -999 0.071256 0.391229 -0.241899
2005-09-22 07:03:45 51°18.376 2°51.474 -999 0.071256 0.391236 -0.241899
2005-09-22 07:03:49 51°18.391 2°51.461 -999 0.071256 0.391243 -0.241899
2005-09-22 07:03:55 51°18.41 2°51.445 -999 0.071256 0.391243 -0.241899
2005-09-22 07:03:59 51°18.425 2°51.433 -999 0.071256 0.391243 -0.241899
2005-09-22 07:04:04 51°18.44 2°51.42 -999 0.071256 0.391243 -0.241899
2005-09-22 07:04:10 51°18.46 2°51.403 -999 0.071256 0.39125 -0.241899
2005-09-22 07:04:15 51°18.476 2°51.388 -999 0.071256 0.391257 -0.241899
2005-09-22 07:04:20 51°18.493 2°51.374 -999 0.071256 0.391257 -0.241899
2005-09-22 07:04:25 51°18.51 2°51.359 -999 0.071256 0.391257 -0.241899
2005-09-22 07:04:30 51°18.526 2°51.344 -999 0.071256 0.391257 -0.241899
2005-09-22 07:04:34 51°18.541 2°51.331 -999 0.071256 0.391257 -0.241899
2005-09-22 07:04:39 51°18.558 2°51.317 -999 0.071256 0.391264 -0.241899
2005-09-22 07:04:44 51°18.573 2°51.304 -999 0.071256 0.391264 -0.241899
2005-09-22 07:04:50 51°18.593 2°51.288 -999 0.071256 0.391271 -0.241899
2005-09-22 07:04:55 51°18.61 2°51.273 -999 0.071256 0.391271 -0.241899
2005-09-22 07:05:00 51°18.627 2°51.259 -999 0.071256 0.391278 -0.241899
2005-09-22 07:05:05 51°18.643 2°51.245 -999 0.071256 0.391278 -0.241899
2005-09-22 07:05:10 51°18.66 2°51.232 -999 0.071256 0.391278 -0.241899
2005-09-22 07:05:14 51°18.675 2°51.219 -999 0.071256 0.391285 -0.241899
2005-09-22 07:05:20 51°18.694 2°51.205 -999 0.071256 0.391285 -0.241899
2005-09-22 07:05:25 51°18.711 2°51.191 -999 0.071256 0.391285 -0.241899
2005-09-22 07:05:30 51°18.727 2°51.177 -999 0.071256 0.391298 -0.241899
2005-09-22 07:05:34 51°18.742 2°51.165 -999 0.071256 0.391298 -0.241899
2005-09-22 07:05:40 51°18.761 2°51.15 -999 0.071256 0.391298 -0.241899
2005-09-22 07:05:45 51°18.777 2°51.136 -999 0.071256 0.391305 -0.241899
2005-09-22 07:05:50 51°18.794 2°51.122 -999 0.071256 0.391298 -0.241899
2005-09-22 07:05:54 51°18.809 2°51.109 -999 0.071256 0.391305 -0.241899
2005-09-22 07:06:00 51°18.827 2°51.094 -999 0.071256 0.391305 -0.241899
2005-09-22 07:06:04 51°18.84 2°51.083 -999 0.071256 0.391305 -0.241899
2005-09-22 07:06:10 51°18.86 2°51.067 -999 0.071256 0.391305 -0.241899
2005-09-22 07:06:14 51°18.875 2°51.055 -999 0.071256 0.391312 -0.241899
2005-09-22 07:06:18 51°18.889 2°51.044 -999 0.071256 0.391312 -0.241899
2005-09-22 07:06:23 51°18.905 2°51.03 -999 0.071256 0.391319 -0.241899
2005-09-22 07:06:30 51°18.926 2°51.012 -999 0.071256 0.391319 -0.241899
2005-09-22 07:06:35 51°18.943 2°50.998 -999 0.071256 0.391319 -0.241899
2005-09-22 07:06:40 51°18.96 2°50.984 -999 0.071256 0.391326 -0.241899
2005-09-22 07:06:45 51°18.976 2°50.97 -999 0.071153 0.390742 -0.241899
2005-09-22 07:06:50 51°18.993 2°50.957 -999 0.071153 0.390742 -0.241899
2005-09-22 07:06:55 51°19.01 2°50.943 -999 0.071153 0.390749 -0.241899
2005-09-22 07:07:00 51°19.026 2°50.929 -999 0.071153 0.390749 -0.241899
2005-09-22 07:07:04 51°19.039 2°50.919 -999 0.071153 0.390749 -0.241899
2005-09-22 07:07:10 51°19.059 2°50.902 -999 0.071153 0.390756 -0.241899
2005-09-22 07:07:14 51°19.075 2°50.89 -999 0.071153 0.390763 -0.241899
2005-09-22 07:07:19 51°19.091 2°50.876 -999 0.071153 0.390763 -0.241899
2005-09-22 07:07:25 51°19.11 2°50.861 -999 0.071256 0.391347 -0.241899
2005-09-22 07:07:29 51°19.125 2°50.849 -999 0.071153 0.39077 -0.241899
2005-09-22 07:07:35 51°19.143 2°50.834 -999 0.071153 0.39077 -0.241899
2005-09-22 07:07:40 51°19.159 2°50.82 -999 0.071153 0.39077 -0.241899
2005-09-22 07:07:45 51°19.177 2°50.807 -999 0.071153 0.39077 -0.241899
2005-09-22 07:07:50 51°19.194 2°50.793 -999 0.071153 0.390777 -0.241899
2005-09-22 07:07:54 51°19.209 2°50.781 -999 0.071153 0.390777 -0.241899
2005-09-22 07:08:00 51°19.227 2°50.766 -999 0.071153 0.390784 -0.241899
2005-09-22 07:08:05 51°19.244 2°50.752 -999 0.071153 0.390784 -0.241899
2005-09-22 07:08:09 51°19.259 2°50.74 -999 0.071153 0.390784 -0.241899
2005-09-22 07:08:14 51°19.276 2°50.726 -999 0.071153 0.390791 -0.241899
2005-09-22 07:08:20 51°19.294 2°50.711 -999 0.071153 0.390791 -0.241899
2005-09-22 07:08:25 51°19.311 2°50.698 -999 0.071153 0.390798 -0.241899
2005-09-22 07:08:30 51°19.327 2°50.684 -999 0.071153 0.390798 -0.241899
2005-09-22 07:08:35 51°19.344 2°50.67 -999 0.071153 0.390798 -0.241899
2005-09-22 07:08:39 51°19.358 2°50.66 -999 0.071153 0.390805 -0.241899
2005-09-22 07:08:44 51°19.374 2°50.646 -999 0.071153 0.390805 -0.241899
2005-09-22 07:08:50 51°19.394 2°50.63 -999 0.071153 0.390812 -0.241899
2005-09-22 07:08:54 51°19.409 2°50.618 -999 0.071153 0.390805 -0.241899
2005-09-22 07:08:58 51°19.422 2°50.606 -999 0.071153 0.390812 -0.241899
2005-09-22 07:09:05 51°19.444 2°50.589 -999 0.071153 0.390812 -0.241899
2005-09-22 07:09:10 51°19.461 2°50.575 -999 0.071153 0.390812 -0.241899
2005-09-22 07:09:14 51°19.476 2°50.563 -999 0.071153 0.390819 -0.241899
2005-09-22 07:09:20 51°19.495 2°50.548 -999 0.071153 0.390819 -0.241899
2005-09-22 07:09:24 51°19.508 2°50.537 -999 0.071153 0.390826 -0.241899
2005-09-22 07:09:30 51°19.528 2°50.521 -999 0.071153 0.390826 -0.241899
2005-09-22 07:09:34 51°19.543 2°50.508 -999 0.071153 0.390826 -0.241899
2005-09-22 07:09:40 51°19.562 2°50.493 -999 0.071153 0.390826 -0.241899
2005-09-22 07:09:45 51°19.579 2°50.479 -999 0.071153 0.390833 -0.241899
2005-09-22 07:09:50 51°19.596 2°50.466 -999 0.071153 0.390833 -0.241899
2005-09-22 07:09:55 51°19.613 2°50.452 -999 0.071153 0.39084 -0.241899
2005-09-22 07:10:00 51°19.63 2°50.438 -999 0.071153 0.39084 -0.241899
2005-09-22 07:10:05 51°19.647 2°50.424 -999 0.071153 0.39084 -0.241899
2005-09-22 07:10:09 51°19.662 2°50.412 -999 0.071153 0.390847 -0.241899
2005-09-22 07:10:14 51°19.679 2°50.399 -999 0.071153 0.390847 -0.275608
2005-09-22 07:10:19 51°19.696 2°50.385 -999 0.071153 0.390847 -0.241899
2005-09-22 07:10:25 51°19.715 2°50.369 -999 0.071153 0.390854 -0.241899
2005-09-22 07:10:30 51°19.732 2°50.356 -999 0.071153 0.390854 -0.241899
2005-09-22 07:10:34 51°19.747 2°50.343 -999 0.071153 0.390854 -0.241899
2005-09-22 07:10:40 51°19.766 2°50.327 -999 0.071153 0.390861 -0.241899
2005-09-22 07:10:45 51°19.783 2°50.313 -999 0.071153 0.390861 -0.241899
2005-09-22 07:10:50 51°19.8 2°50.3 -999 0.071153 0.390867 -0.241899
2005-09-22 07:10:54 51°19.815 2°50.287 -999 0.071153 0.390867 -0.241899
2005-09-22 07:10:59 51°19.832 2°50.273 -999 0.071153 0.390867 -0.241899
2005-09-22 07:11:04 51°19.848 2°50.261 -999 0.071153 0.390867 -0.241899
2005-09-22 07:11:10 51°19.868 2°50.245 -999 0.071153 0.390874 -0.241899
2005-09-22 07:11:15 51°19.885 2°50.231 -999 0.071153 0.390874 -0.241899
2005-09-22 07:11:20 51°19.902 2°50.217 -999 0.071153 0.390881 -0.241899
2005-09-22 07:11:25 51°19.919 2°50.203 -999 0.071153 0.390881 -0.241899
2005-09-22 07:11:30 51°19.936 2°50.189 -999 0.071153 0.390881 -0.241899
2005-09-22 07:11:34 51°19.951 2°50.177 -999 0.071153 0.390881 -0.241899
2005-09-22 07:11:40 51°19.97 2°50.162 -999 0.071153 0.390888 -0.241899
2005-09-22 07:11:44 51°19.983 2°50.151 -999 0.071153 0.390888 -0.241899
2005-09-22 07:11:49 51°20.002 2°50.135 -999 0.071153 0.390895 -0.241899
2005-09-22 07:11:55 51°20.021 2°50.12 -999 0.071153 0.390895 -0.241899
2005-09-22 07:12:00 51°20.037 2°50.106 -999 0.071153 0.390895 -0.241899
2005-09-22 07:12:05 51°20.054 2°50.092 -999 0.071153 0.390895 -0.241899
2005-09-22 07:12:10 51°20.071 2°50.078 -999 0.071153 0.390902 -0.241899
2005-09-22 07:12:14 51°20.086 2°50.066 -999 0.071153 0.390909 -0.241899
2005-09-22 07:12:20 51°20.104 2°50.051 -999 0.071153 0.390909 -0.241899
2005-09-22 07:12:23 51°20.116 2°50.041 -999 0.071153 0.390909 -0.241899
2005-09-22 07:12:30 51°20.138 2°50.023 -999 0.071153 0.390916 -0.241899
2005-09-22 07:12:34 51°20.153 2°50.011 -999 0.071153 0.390916 -0.241899
2005-09-22 07:12:40 51°20.171 2°49.995 -999 0.071153 0.390916 -0.241899
2005-09-22 07:12:44 51°20.185 2°49.984 -999 0.071153 0.390923 -0.241899
2005-09-22 07:12:50 51°20.205 2°49.967 -999 0.071153 0.390923 -0.241899
2005-09-22 07:12:54 51°20.22 2°49.955 -999 0.071153 0.390923 -0.241899
2005-09-22 07:13:00 51°20.239 2°49.94 -999 0.071153 0.39093 -0.241899
2005-09-22 07:13:04 51°20.254 2°49.927 -999 0.071153 0.39093 -0.241899
2005-09-22 07:13:09 51°20.271 2°49.914 -999 0.071153 0.39093 -0.241899
2005-09-22 07:13:14 51°20.288 2°49.9 -999 0.071153 0.39093 -0.241899
2005-09-22 07:13:19 51°20.305 2°49.886 -999 0.071153 0.390937 -0.241899
2005-09-22 07:13:24 51°20.321 2°49.873 -999 0.071153 0.390937 -0.241899
2005-09-22 07:13:30 51°20.34 2°49.858 -999 0.071153 0.390944 -0.241899
2005-09-22 07:13:34 51°20.355 2°49.845 -999 0.071153 0.390944 -0.241899
2005-09-22 07:13:40 51°20.374 2°49.83 -999 0.071153 0.390944 -0.241899
2005-09-22 07:13:45 51°20.391 2°49.817 -999 0.071153 0.390944 -0.241899
2005-09-22 07:13:50 51°20.408 2°49.803 -999 0.071153 0.390951 -0.241899
2005-09-22 07:13:54 51°20.423 2°49.791 -999 0.071153 0.390958 -0.241899
2005-09-22 07:13:59 51°20.438 2°49.779 -999 0.071153 0.390958 -0.241899
2005-09-22 07:14:04 51°20.457 2°49.764 -999 0.071153 0.390958 -0.241899
2005-09-22 07:14:09 51°20.474 2°49.751 -999 0.071153 0.390958 -0.241899
2005-09-22 07:14:14 51°20.491 2°49.737 -999 0.071153 0.390958 -0.241899
2005-09-22 07:14:20 51°20.509 2°49.721 -999 0.071153 0.390965 -0.241899
2005-09-22 07:14:24 51°20.525 2°49.708 -999 0.071153 0.390972 -0.241899
2005-09-22 07:14:29 51°20.541 2°49.693 -999 0.071153 0.390972 -0.241899
2005-09-22 07:14:35 51°20.56 2°49.677 -999 0.071153 0.390972 -0.241899
2005-09-22 07:14:40 51°20.576 2°49.661 -999 0.071153 0.390972 -0.241899
2005-09-22 07:14:45 51°20.593 2°49.646 -999 0.071153 0.390979 -0.241899
2005-09-22 07:14:50 51°20.609 2°49.63 -999 0.071153 0.390979 -0.241899
2005-09-22 07:14:54 51°20.624 2°49.616 -999 0.071153 0.390979 -0.241899
2005-09-22 07:15:00 51°20.642 2°49.598 -999 0.071153 0.390986 -0.241899
2005-09-22 07:15:05 51°20.658 2°49.582 -999 0.071153 0.390986 -0.241899
2005-09-22 07:15:10 51°20.675 2°49.566 -999 0.071153 0.390986 -0.275608
2005-09-22 07:15:14 51°20.69 2°49.552 -999 0.071153 0.390986 -0.241899
2005-09-22 07:15:19 51°20.706 2°49.536 -999 0.071153 0.390993 -0.241899
2005-09-22 07:15:25 51°20.724 2°49.519 -999 0.071153 0.390993 -0.241899
2005-09-22 07:15:30 51°20.741 2°49.503 -999 0.071153 0.391 -0.241899
2005-09-22 07:15:35 51°20.757 2°49.488 -999 0.071153 0.391 -0.241899
2005-09-22 07:15:40 51°20.773 2°49.471 -999 0.071153 0.391007 -0.241899
2005-09-22 07:15:44 51°20.786 2°49.459 -999 0.071153 0.391007 -0.241899
2005-09-22 07:15:50 51°20.806 2°49.439 -999 0.071153 0.391007 -0.241899
2005-09-22 07:15:55 51°20.822 2°49.424 -999 0.071153 0.391014 -0.241899
2005-09-22 07:15:58 51°20.833 2°49.413 -999 0.071153 0.391007 -0.241899
2005-09-22 07:16:04 51°20.851 2°49.396 -999 0.071153 0.391007 -0.241899
2005-09-22 07:16:10 51°20.871 2°49.378 -999 0.071153 0.391014 -0.241899
2005-09-22 07:16:14 51°20.886 2°49.365 -999 0.071153 0.391014 -0.241899
2005-09-22 07:16:20 51°20.904 2°49.348 -999 0.071153 0.391021 -0.241899
2005-09-22 07:16:24 51°20.917 2°49.337 -999 0.071153 0.391027 -0.241899
2005-09-22 07:16:29 51°20.935 2°49.32 -999 0.071153 0.391027 -0.275608
2005-09-22 07:16:34 51°20.951 2°49.305 -999 0.071153 0.391027 -0.275608
2005-09-22 07:16:40 51°20.969 2°49.29 -999 0.071153 0.391027 -0.241899
2005-09-22 07:16:45 51°20.986 2°49.275 -999 0.071153 0.391027 -0.241899
2005-09-22 07:16:49 51°21.001 2°49.263 -999 0.071153 0.391034 -0.241899
2005-09-22 07:16:55 51°21.02 2°49.248 -999 0.071153 0.391034 -0.241899
2005-09-22 07:17:00 51°21.036 2°49.234 -999 0.071153 0.391041 -0.241899
2005-09-22 07:17:04 51°21.05 2°49.223 -999 0.071153 0.391041 -0.241899
2005-09-22 07:17:10 51°21.07 2°49.206 -999 0.071153 0.391048 -0.241899
2005-09-22 07:17:14 51°21.085 2°49.194 -999 0.071153 0.391048 -0.241899
2005-09-22 07:17:20 51°21.104 2°49.179 -999 0.071153 0.391048 -0.241899
2005-09-22 07:17:25 51°21.12 2°49.165 -999 0.071153 0.391055 -0.241899
2005-09-22 07:17:29 51°21.135 2°49.152 -999 0.071153 0.391055 -0.241899
2005-09-22 07:17:34 51°21.152 2°49.138 -999 0.071153 0.391055 -0.241899
2005-09-22 07:17:39 51°21.169 2°49.124 -999 0.071153 0.391055 -0.241899
2005-09-22 07:17:44 51°21.184 2°49.111 -999 0.071153 0.391062 -0.241899
2005-09-22 07:17:50 51°21.204 2°49.095 -999 0.071153 0.391062 -0.241899
2005-09-22 07:17:55 51°21.221 2°49.081 -999 0.071153 0.391062 -0.241899
2005-09-22 07:18:00 51°21.238 2°49.067 -999 0.071153 0.391069 -0.241899
2005-09-22 07:18:05 51°21.255 2°49.053 -999 0.071153 0.391069 -0.241899
2005-09-22 07:18:10 51°21.272 2°49.04 -999 0.071153 0.391069 -0.241899
2005-09-22 07:18:14 51°21.287 2°49.027 -999 0.071153 0.391076 -0.241899
2005-09-22 07:18:20 51°21.306 2°49.012 -999 0.071153 0.391076 -0.241899
2005-09-22 07:18:24 51°21.321 2°48.999 -999 0.071153 0.391076 -0.241899
2005-09-22 07:18:30 51°21.341 2°48.982 -999 0.071153 0.391083 -0.275608
2005-09-22 07:18:35 51°21.356 2°48.969 -999 0.071153 0.391083 -0.275608
2005-09-22 07:18:40 51°21.372 2°48.956 -999 0.071153 0.391083 -0.241899
2005-09-22 07:18:45 51°21.39 2°48.942 -999 0.071153 0.391083 -0.241899
2005-09-22 07:18:49 51°21.405 2°48.93 -999 0.071153 0.39109 -0.241899
2005-09-22 07:18:55 51°21.423 2°48.914 -999 0.071153 0.391097 -0.241899
2005-09-22 07:18:59 51°21.437 2°48.903 -999 0.071153 0.391097 -0.241899
2005-09-22 07:19:04 51°21.454 2°48.89 -999 0.071153 0.391097 -0.241899
2005-09-22 07:19:10 51°21.474 2°48.873 -999 0.071153 0.391097 -0.241899
2005-09-22 07:19:15 51°21.493 2°48.858 -999 0.071153 0.391104 -0.241899
2005-09-22 07:19:20 51°21.508 2°48.846 -999 0.071153 0.391104 -0.275608
2005-09-22 07:19:24 51°21.522 2°48.835 -999 0.071153 0.391104 -0.241899
2005-09-22 07:19:30 51°21.542 2°48.818 -999 0.071153 0.391111 -0.241899
2005-09-22 07:19:34 51°21.558 2°48.805 -999 0.071153 0.391111 -0.241899
2005-09-22 07:19:39 51°21.573 2°48.792 -999 0.071153 0.391111 -0.241899
2005-09-22 07:19:43 51°21.588 2°48.78 -999 0.071153 0.391118 -0.241899
2005-09-22 07:19:49 51°21.608 2°48.763 -999 0.071153 0.391118 -0.241899
2005-09-22 07:19:55 51°21.627 2°48.748 -999 0.071153 0.391118 -0.241899
2005-09-22 07:19:59 51°21.64 2°48.737 -999 0.07105 0.39054 -0.241899
2005-09-22 07:20:05 51°21.66 2°48.721 -999 0.07105 0.39054 -0.241899
2005-09-22 07:20:09 51°21.676 2°48.709 -999 0.07105 0.39054 -0.241899
2005-09-22 07:20:15 51°21.695 2°48.694 -999 0.071153 0.391125 -0.241899
2005-09-22 07:20:19 51°21.708 2°48.683 -999 0.071153 0.391132 -0.241899
2005-09-22 07:20:24 51°21.725 2°48.67 -999 0.07105 0.390554 -0.275608
2005-09-22 07:20:30 51°21.745 2°48.654 -999 0.07105 0.390554 -0.241899
2005-09-22 07:20:34 51°21.761 2°48.642 -999 0.07105 0.390554 -0.241899
2005-09-22 07:20:40 51°21.779 2°48.628 -999 0.07105 0.390561 -0.275608
2005-09-22 07:20:44 51°21.793 2°48.617 -999 0.07105 0.390561 -0.241899
2005-09-22 07:20:50 51°21.813 2°48.601 -999 0.07105 0.390561 -0.241899
2005-09-22 07:20:54 51°21.828 2°48.59 -999 0.07105 0.390568 -0.241899
2005-09-22 07:21:00 51°21.847 2°48.575 -999 0.07105 0.390561 -0.241899
2005-09-22 07:21:04 51°21.861 2°48.565 -999 0.07105 0.390561 -0.241899
2005-09-22 07:21:09 51°21.879 2°48.551 -999 0.07105 0.390568 -0.241899
2005-09-22 07:21:14 51°21.896 2°48.538 -999 0.07105 0.390568 -0.275608
2005-09-22 07:21:20 51°21.915 2°48.524 -999 0.07105 0.390575 -0.275608
2005-09-22 07:21:24 51°21.928 2°48.513 -999 0.07105 0.390575 -0.275608
2005-09-22 07:21:30 51°21.949 2°48.498 -999 0.07105 0.390582 -0.275608
2005-09-22 07:21:34 51°21.964 2°48.486 -999 0.07105 0.390582 -0.275608
2005-09-22 07:21:40 51°21.983 2°48.472 -999 0.07105 0.390582 -0.241899
2005-09-22 07:21:45 51°22.002 2°48.458 -999 0.07105 0.390589 -0.275608
2005-09-22 07:21:50 51°22.017 2°48.446 -999 0.07105 0.390589 -0.241899
2005-09-22 07:21:55 51°22.034 2°48.433 -999 0.07105 0.390589 -0.275608
2005-09-22 07:22:00 51°22.051 2°48.42 -999 0.07105 0.390596 -0.241899
2005-09-22 07:22:04 51°22.064 2°48.409 -999 0.07105 0.390596 -0.241899
2005-09-22 07:22:10 51°22.084 2°48.394 -999 0.07105 0.390596 -0.275608
2005-09-22 07:22:14 51°22.099 2°48.382 -999 0.07105 0.390596 -0.275608
2005-09-22 07:22:19 51°22.115 2°48.37 -999 0.07105 0.390603 -0.275608
2005-09-22 07:22:23 51°22.13 2°48.358 -999 0.07105 0.390603 -0.241899
2005-09-22 07:22:30 51°22.152 2°48.342 -999 0.07105 0.390603 -0.241899
2005-09-22 07:22:34 51°22.167 2°48.33 -999 0.07105 0.390603 -0.241899
2005-09-22 07:22:39 51°22.184 2°48.317 -999 0.07105 0.39061 -0.241899
2005-09-22 07:22:44 51°22.2 2°48.306 -999 0.07105 0.39061 -0.241899
2005-09-22 07:22:50 51°22.221 2°48.291 -999 0.07105 0.390617 -0.275608
2005-09-22 07:22:55 51°22.237 2°48.278 -999 0.07105 0.390617 -0.275608
2005-09-22 07:22:59 51°22.252 2°48.266 -999 0.07105 0.390624 -0.241899
2005-09-22 07:23:04 51°22.268 2°48.254 -999 0.07105 0.390624 -0.241899
2005-09-22 07:23:10 51°22.288 2°48.238 -999 0.07105 0.390624 -0.241899
2005-09-22 07:23:14 51°22.304 2°48.226 -999 0.07105 0.390624 -0.241899
2005-09-22 07:23:19 51°22.319 2°48.214 -999 0.07105 0.390631 -0.275608
2005-09-22 07:23:24 51°22.336 2°48.202 -999 0.07105 0.390631 -0.241899
2005-09-22 07:23:30 51°22.356 2°48.186 -999 0.07105 0.390638 -0.241899
2005-09-22 07:23:34 51°22.372 2°48.174 -999 0.07105 0.390638 -0.241899
2005-09-22 07:23:39 51°22.389 2°48.161 -999 0.07105 0.390638 -0.241899
2005-09-22 07:23:45 51°22.407 2°48.147 -999 0.07105 0.390638 -0.241899
2005-09-22 07:23:50 51°22.424 2°48.134 -999 0.07105 0.390638 -0.241899
2005-09-22 07:23:54 51°22.44 2°48.123 -999 0.07105 0.390645 -0.241899
2005-09-22 07:24:00 51°22.458 2°48.108 -999 0.07105 0.390645 -0.275608
2005-09-22 07:24:04 51°22.472 2°48.099 -999 0.07105 0.390645 -0.275608
2005-09-22 07:24:10 51°22.493 2°48.084 -999 0.07105 0.390652 -0.275608
2005-09-22 07:24:15 51°22.511 2°48.071 -999 0.07105 0.390652 -0.241899
2005-09-22 07:24:20 51°22.528 2°48.059 -999 0.07105 0.390659 -0.241899
2005-09-22 07:24:24 51°22.542 2°48.048 -999 0.07105 0.390659 -0.275608
2005-09-22 07:24:29 51°22.561 2°48.035 -999 0.07105 0.390666 -0.275608
2005-09-22 07:24:34 51°22.578 2°48.022 -999 0.07105 0.390666 -0.275608
2005-09-22 07:24:38 51°22.592 2°48.011 -999 0.07105 0.390666 -0.275608
2005-09-22 07:24:45 51°22.614 2°47.995 -999 0.07105 0.390666 -0.241899
2005-09-22 07:24:50 51°22.631 2°47.982 -999 0.07105 0.390666 -0.241899
2005-09-22 07:24:54 51°22.645 2°47.972 -999 0.07105 0.390673 -0.275608
2005-09-22 07:25:00 51°22.666 2°47.957 -999 0.07105 0.390673 -0.241899
2005-09-22 07:25:04 51°22.682 2°47.946 -999 0.07105 0.390673 -0.241899
2005-09-22 07:25:10 51°22.701 2°47.932 -999 0.07105 0.39068 -0.241899
2005-09-22 07:25:14 51°22.716 2°47.921 -999 0.07105 0.39068 -0.241899
2005-09-22 07:25:20 51°22.736 2°47.907 -999 0.07105 0.39068 -0.241899
2005-09-22 07:25:24 51°22.749 2°47.897 -999 0.07105 0.390687 -0.275608
2005-09-22 07:25:29 51°22.768 2°47.883 -999 0.07105 0.390687 -0.275608
2005-09-22 07:25:34 51°22.786 2°47.871 -999 0.07105 0.390687 -0.275608
2005-09-22 07:25:38 51°22.8 2°47.861 -999 0.07105 0.390693 -0.241899
2005-09-22 07:25:44 51°22.818 2°47.847 -999 0.07105 0.390693 -0.241899
2005-09-22 07:25:49 51°22.837 2°47.833 -999 0.07105 0.3907 -0.241899
2005-09-22 07:25:55 51°22.857 2°47.819 -999 0.07105 0.3907 -0.241899
2005-09-22 07:26:00 51°22.874 2°47.807 -999 0.07105 0.3907 -0.241899
2005-09-22 07:26:04 51°22.89 2°47.796 -999 0.07105 0.3907 -0.241899
2005-09-22 07:26:10 51°22.908 2°47.783 -999 0.07105 0.390707 -0.241899
2005-09-22 07:26:14 51°22.924 2°47.771 -999 0.07105 0.390707 -0.241899
2005-09-22 07:26:19 51°22.941 2°47.759 -999 0.07105 0.390707 -0.241899
2005-09-22 07:26:24 51°22.957 2°47.748 -999 0.07105 0.390714 -0.241899
2005-09-22 07:26:30 51°22.978 2°47.733 -999 0.07105 0.390714 -0.241899
2005-09-22 07:26:34 51°22.994 2°47.722 -999 0.07105 0.390714 -0.241899
2005-09-22 07:26:39 51°23.009 2°47.711 -999 0.07105 0.390721 -0.241899
2005-09-22 07:26:44 51°23.028 2°47.698 -999 0.07105 0.390721 -0.241899
2005-09-22 07:26:50 51°23.047 2°47.684 -999 0.07105 0.390721 -0.275608
2005-09-22 07:26:54 51°23.063 2°47.673 -999 0.07105 0.390728 -0.275608
2005-09-22 07:27:00 51°23.082 2°47.66 -999 0.07105 0.390735 -0.241899
2005-09-22 07:27:04 51°23.096 2°47.65 -999 0.07105 0.390735 -0.241899
2005-09-22 07:27:10 51°23.117 2°47.635 -999 0.07105 0.390728 -0.241899
2005-09-22 07:27:14 51°23.132 2°47.624 -999 0.07105 0.390735 -0.241899
2005-09-22 07:27:19 51°23.15 2°47.612 -999 0.07105 0.390735 -0.241899
2005-09-22 07:27:24 51°23.167 2°47.6 -999 0.07105 0.390742 -0.275608
2005-09-22 07:27:30 51°23.186 2°47.586 -999 0.07105 0.390742 -0.275608
2005-09-22 07:27:34 51°23.202 2°47.575 -999 0.07105 0.390742 -0.275608
2005-09-22 07:27:40 51°23.221 2°47.562 -999 0.07105 0.390749 -0.241899
2005-09-22 07:27:44 51°23.237 2°47.551 -999 0.07105 0.390749 -0.241899
2005-09-22 07:27:50 51°23.255 2°47.537 -999 0.07105 0.390749 -0.241899
2005-09-22 07:27:55 51°23.273 2°47.525 -999 0.07105 0.390756 -0.241899
2005-09-22 07:28:00 51°23.29 2°47.513 -999 0.07105 0.390756 -0.241899
2005-09-22 07:28:05 51°23.307 2°47.5 -999 0.07105 0.390756 -0.241899
2005-09-22 07:28:09 51°23.322 2°47.489 -999 0.07105 0.390756 -0.241899
2005-09-22 07:28:14 51°23.339 2°47.476 -999 0.07105 0.390763 -0.241899
2005-09-22 07:28:20 51°23.358 2°47.462 -999 0.07105 0.390763 -0.241899
2005-09-22 07:28:25 51°23.375 2°47.449 -999 0.07105 0.390763 -0.241899
2005-09-22 07:28:30 51°23.392 2°47.436 -999 0.07105 0.39077 -0.241899
2005-09-22 07:28:34 51°23.408 2°47.425 -999 0.07105 0.39077 -0.241899
2005-09-22 07:28:40 51°23.427 2°47.412 -999 0.07105 0.39077 -0.241899
2005-09-22 07:28:44 51°23.44 2°47.402 -999 0.07105 0.390777 -0.275608
2005-09-22 07:28:50 51°23.462 2°47.386 -999 0.07105 0.390777 -0.241899
2005-09-22 07:28:54 51°23.477 2°47.375 -999 0.07105 0.390784 -0.275608
2005-09-22 07:28:58 51°23.49 2°47.365 -999 0.07105 0.390784 -0.275608
2005-09-22 07:29:05 51°23.513 2°47.348 -999 0.07105 0.390784 -0.275608
2005-09-22 07:29:10 51°23.53 2°47.335 -999 0.07105 0.390784 -0.275608
2005-09-22 07:29:14 51°23.545 2°47.323 -999 0.07105 0.390784 -0.241899
2005-09-22 07:29:19 51°23.56 2°47.312 -999 0.07105 0.390791 -0.241899
2005-09-22 07:29:24 51°23.577 2°47.299 -999 0.07105 0.390791 -0.241899
2005-09-22 07:29:30 51°23.598 2°47.284 -999 0.07105 0.390798 -0.275608
2005-09-22 07:29:35 51°23.615 2°47.271 -999 0.07105 0.390798 -0.275608
2005-09-22 07:29:40 51°23.632 2°47.259 -999 0.07105 0.390798 -0.241899
2005-09-22 07:29:44 51°23.646 2°47.249 -999 0.07105 0.390805 -0.275608
2005-09-22 07:29:50 51°23.667 2°47.235 -999 0.07105 0.390805 -0.241899
2005-09-22 07:29:55 51°23.684 2°47.223 -999 0.07105 0.390805 -0.241899
2005-09-22 07:29:59 51°23.698 2°47.213 -999 0.07105 0.390805 -0.241899
2005-09-22 07:30:04 51°23.717 2°47.201 -999 0.07105 0.390805 -0.241899
2005-09-22 07:30:10 51°23.735 2°47.188 -999 0.07105 0.390812 -0.275608
2005-09-22 07:30:15 51°23.753 2°47.177 -999 0.07105 0.390812 -0.241899
2005-09-22 07:30:20 51°23.771 2°47.166 -999 0.07105 0.390819 -0.241899
2005-09-22 07:30:24 51°23.785 2°47.157 -999 0.07105 0.390819 -0.241899
2005-09-22 07:30:30 51°23.806 2°47.145 -999 0.07105 0.390826 -0.241899
2005-09-22 07:30:34 51°23.821 2°47.135 -999 0.07105 0.390826 -0.241899
2005-09-22 07:30:40 51°23.841 2°47.124 -999 0.07105 0.390819 -0.241899
2005-09-22 07:30:45 51°23.859 2°47.114 -999 0.07105 0.390826 -0.241899
2005-09-22 07:30:50 51°23.876 2°47.105 -999 0.07105 0.390826 -0.275608
2005-09-22 07:30:54 51°23.893 2°47.097 -999 0.07105 0.390833 -0.241899
2005-09-22 07:31:00 51°23.912 2°47.088 -999 0.07105 0.390833 -0.241899
2005-09-22 07:31:04 51°23.926 2°47.081 -999 0.07105 0.390833 -0.241899
2005-09-22 07:31:10 51°23.948 2°47.07 -999 0.07105 0.390833 -0.275608
2005-09-22 07:31:14 51°23.964 2°47.062 -999 0.07105 0.39084 -0.241899
2005-09-22 07:31:19 51°23.98 2°47.053 -999 0.07105 0.39084 -0.241899
2005-09-22 07:31:24 51°23.999 2°47.044 -999 0.07105 0.390847 -0.241899
2005-09-22 07:31:30 51°24.019 2°47.034 -999 0.07105 0.390854 -0.241899
2005-09-22 07:31:34 51°24.035 2°47.025 -999 0.07105 0.390854 -0.241899
2005-09-22 07:31:39 51°24.053 2°47.015 -999 0.07105 0.390854 -0.241899
2005-09-22 07:31:44 51°24.07 2°47.006 -999 0.07105 0.390854 -0.241899
2005-09-22 07:31:50 51°24.09 2°46.995 -999 0.07105 0.390854 -0.275608
2005-09-22 07:31:54 51°24.106 2°46.987 -999 0.07105 0.390861 -0.241899
2005-09-22 07:32:00 51°24.126 2°46.977 -999 0.07105 0.390861 -0.241899
2005-09-22 07:32:04 51°24.142 2°46.968 -999 0.07105 0.390861 -0.241899
2005-09-22 07:32:10 51°24.163 2°46.958 -999 0.07105 0.390868 -0.241899
2005-09-22 07:32:14 51°24.178 2°46.95 -999 0.07105 0.390868 -0.275608
2005-09-22 07:32:20 51°24.197 2°46.94 -999 0.07105 0.390868 -0.275608
2005-09-22 07:32:25 51°24.215 2°46.931 -999 0.07105 0.390868 -0.275608
2005-09-22 07:32:30 51°24.235 2°46.92 -999 0.07105 0.390875 -0.275608
2005-09-22 07:32:34 51°24.25 2°46.913 -999 0.07105 0.390875 -0.275608
2005-09-22 07:32:40 51°24.269 2°46.903 -999 0.07105 0.390875 -0.275608
2005-09-22 07:32:45 51°24.288 2°46.893 -999 0.07105 0.390882 -0.241899
2005-09-22 07:32:49 51°24.303 2°46.886 -999 0.07105 0.390882 -0.241899
2005-09-22 07:32:54 51°24.321 2°46.877 -999 0.07105 0.390882 -0.275608
2005-09-22 07:33:00 51°24.341 2°46.87 -999 0.070947 0.390297 -0.241899
2005-09-22 07:33:05 51°24.359 2°46.864 -999 0.070947 0.390297 -0.241899
2005-09-22 07:33:10 51°24.377 2°46.863 -999 0.07105 0.390875 -0.275608
2005-09-22 07:33:14 51°24.393 2°46.863 -999 0.07105 0.390882 -0.275608
2005-09-22 07:33:20 51°24.413 2°46.867 -999 0.07105 0.390882 -0.241899
2005-09-22 07:33:24 51°24.429 2°46.872 -999 0.07105 0.390888 -0.241899
2005-09-22 07:33:30 51°24.447 2°46.881 -999 0.07105 0.390895 -0.275608
2005-09-22 07:33:34 51°24.462 2°46.892 -999 0.07105 0.390895 -0.275608
2005-09-22 07:33:39 51°24.478 2°46.903 -999 0.07105 0.390902 -0.275608
2005-09-22 07:33:44 51°24.493 2°46.917 -999 0.07105 0.390902 -0.241899
2005-09-22 07:33:50 51°24.509 2°46.935 -999 0.07105 0.390909 -0.275608
2005-09-22 07:33:54 51°24.52 2°46.952 -999 0.070947 0.390324 -0.241899
2005-09-22 07:34:00 51°24.533 2°46.974 -999 0.070947 0.390331 -0.241899
2005-09-22 07:34:04 51°24.543 2°46.993 -999 0.070947 0.390331 -0.241899
2005-09-22 07:34:10 51°24.553 2°47.019 -999 0.07105 0.390916 -0.275608
2005-09-22 07:34:14 51°24.56 2°47.04 -999 0.070947 0.390331 -0.241899
2005-09-22 07:34:20 51°24.569 2°47.067 -999 0.07105 0.390923 -0.275608
2005-09-22 07:34:24 51°24.575 2°47.09 -999 0.070947 0.390345 -0.241899
2005-09-22 07:34:30 51°24.582 2°47.118 -999 0.070947 0.390345 -0.275608
2005-09-22 07:34:34 51°24.588 2°47.141 -999 0.070947 0.390345 -0.275608
2005-09-22 07:34:40 51°24.594 2°47.17 -999 0.070947 0.390345 -0.241899
2005-09-22 07:34:45 51°24.6 2°47.197 -999 0.070947 0.390345 -0.275608
2005-09-22 07:34:49 51°24.605 2°47.22 -999 0.070947 0.390345 -0.241899
2005-09-22 07:34:55 51°24.611 2°47.249 -999 0.070947 0.390345 -0.275608
2005-09-22 07:35:00 51°24.617 2°47.275 -999 0.070947 0.390345 -0.275608
2005-09-22 07:35:05 51°24.622 2°47.302 -999 0.070947 0.390345 -0.275608
2005-09-22 07:35:09 51°24.627 2°47.326 -999 0.070947 0.390352 -0.241899
2005-09-22 07:35:14 51°24.633 2°47.352 -999 0.070947 0.390359 -0.241899
2005-09-22 07:35:19 51°24.639 2°47.376 -999 0.070947 0.390359 -0.275608
2005-09-22 07:35:24 51°24.646 2°47.405 -999 0.070947 0.390366 -0.241899
2005-09-22 07:35:30 51°24.653 2°47.433 -999 0.070947 0.390373 -0.241899
2005-09-22 07:35:35 51°24.66 2°47.459 -999 0.070947 0.390373 -0.241899
2005-09-22 07:35:40 51°24.667 2°47.487 -999 0.070947 0.390373 -0.275608
2005-09-22 07:35:44 51°24.672 2°47.508 -999 0.070947 0.390373 -0.275608
2005-09-22 07:35:50 51°24.679 2°47.536 -999 0.070947 0.39038 -0.275608
2005-09-22 07:35:55 51°24.686 2°47.563 -999 0.070947 0.39038 -0.275608
2005-09-22 07:36:00 51°24.692 2°47.589 -999 0.070947 0.390373 -0.241899
2005-09-22 07:36:04 51°24.697 2°47.609 -999 0.070947 0.390373 -0.241899
2005-09-22 07:36:10 51°24.705 2°47.641 -999 0.070947 0.39038 -0.275608
2005-09-22 07:36:15 51°24.711 2°47.667 -999 0.070947 0.390373 -0.275608
2005-09-22 07:36:19 51°24.717 2°47.69 -999 0.070947 0.39038 -0.241899
2005-09-22 07:36:25 51°24.724 2°47.719 -999 0.070947 0.39038 -0.275608
2005-09-22 07:36:30 51°24.731 2°47.744 -999 0.070947 0.39038 -0.241899
2005-09-22 07:36:34 51°24.737 2°47.768 -999 0.070947 0.39038 -0.241899
2005-09-22 07:36:40 51°24.745 2°47.796 -999 0.070947 0.390387 -0.241899
2005-09-22 07:36:45 51°24.751 2°47.822 -999 0.070947 0.390387 -0.241899
2005-09-22 07:36:49 51°24.758 2°47.845 -999 0.070947 0.390387 -0.241899
2005-09-22 07:36:55 51°24.765 2°47.874 -999 0.070947 0.390394 -0.275608
2005-09-22 07:36:59 51°24.77 2°47.895 -999 0.070947 0.390394 -0.275608
2005-09-22 07:37:04 51°24.777 2°47.923 -999 0.070947 0.390394 -0.275608
2005-09-22 07:37:09 51°24.783 2°47.949 -999 0.070947 0.390394 -0.275608
2005-09-22 07:37:15 51°24.79 2°47.978 -999 0.070947 0.390401 -0.241899
2005-09-22 07:37:20 51°24.796 2°48.004 -999 0.070947 0.390401 -0.275608
2005-09-22 07:37:24 51°24.801 2°48.024 -999 0.070947 0.390401 -0.275608
2005-09-22 07:37:30 51°24.808 2°48.056 -999 0.070947 0.390401 -0.275608
2005-09-22 07:37:34 51°24.814 2°48.079 -999 0.070947 0.390401 -0.275608
2005-09-22 07:37:40 51°24.821 2°48.107 -999 0.070947 0.390401 -0.241899
2005-09-22 07:37:44 51°24.827 2°48.131 -999 0.070947 0.390408 -0.275608
2005-09-22 07:37:50 51°24.835 2°48.159 -999 0.070947 0.390408 -0.275608
2005-09-22 07:37:54 51°24.841 2°48.183 -999 0.070947 0.390408 -0.241899
2005-09-22 07:38:00 51°24.848 2°48.211 -999 0.070947 0.390408 -0.275608
2005-09-22 07:38:04 51°24.855 2°48.234 -999 0.070947 0.390408 -0.275608
2005-09-22 07:38:10 51°24.862 2°48.263 -999 0.070947 0.390415 -0.275608
2005-09-22 07:38:15 51°24.869 2°48.289 -999 0.070947 0.390415 -0.275608
2005-09-22 07:38:19 51°24.874 2°48.31 -999 0.070947 0.390422 -0.241899
2005-09-22 07:38:24 51°24.882 2°48.339 -999 0.070947 0.390422 -0.241899
2005-09-22 07:38:30 51°24.889 2°48.367 -999 0.070947 0.390422 -0.275608
2005-09-22 07:38:34 51°24.894 2°48.391 -999 0.070947 0.390422 -0.275608
2005-09-22 07:38:39 51°24.901 2°48.417 -999 0.070947 0.390429 -0.275608
2005-09-22 07:38:44 51°24.907 2°48.443 -999 0.070947 0.390429 -0.275608
2005-09-22 07:38:50 51°24.914 2°48.472 -999 0.070947 0.390436 -0.241899
2005-09-22 07:38:54 51°24.919 2°48.495 -999 0.070947 0.390436 -0.275608
2005-09-22 07:39:00 51°24.926 2°48.524 -999 0.070947 0.390436 -0.275608
2005-09-22 07:39:05 51°24.932 2°48.55 -999 0.070947 0.390436 -0.275608
2005-09-22 07:39:10 51°24.938 2°48.577 -999 0.070947 0.390443 -0.241899
2005-09-22 07:39:15 51°24.945 2°48.603 -999 0.070947 0.390443 -0.241899
2005-09-22 07:39:20 51°24.951 2°48.628 -999 0.070947 0.39045 -0.275608
2005-09-22 07:39:24 51°24.956 2°48.652 -999 0.070947 0.39045 -0.275608
2005-09-22 07:39:30 51°24.963 2°48.68 -999 0.070947 0.39045 -0.275608
2005-09-22 07:39:35 51°24.969 2°48.707 -999 0.070947 0.39045 -0.275608
2005-09-22 07:39:40 51°24.975 2°48.733 -999 0.070947 0.39045 -0.275608
2005-09-22 07:39:44 51°24.98 2°48.757 -999 0.070947 0.390457 -0.241899
2005-09-22 07:39:50 51°24.987 2°48.785 -999 0.070947 0.390457 -0.275608
2005-09-22 07:39:54 51°24.993 2°48.808 -999 0.070947 0.390457 -0.275608
2005-09-22 07:40:00 51°25 2°48.837 -999 0.070947 0.390464 -0.275608
2005-09-22 07:40:04 51°25.005 2°48.86 -999 0.070947 0.390464 -0.275608
2005-09-22 07:40:10 51°25.013 2°48.888 -999 0.070947 0.390464 -0.275608
2005-09-22 07:40:14 51°25.019 2°48.911 -999 0.070947 0.390464 -0.275608
2005-09-22 07:40:20 51°25.026 2°48.94 -999 0.070947 0.390471 -0.241899
2005-09-22 07:40:25 51°25.032 2°48.965 -999 0.070947 0.390471 -0.275608
2005-09-22 07:40:30 51°25.039 2°48.991 -999 0.070947 0.390471 -0.275608
2005-09-22 07:40:35 51°25.045 2°49.017 -999 0.070947 0.390471 -0.275608
2005-09-22 07:40:40 51°25.052 2°49.043 -999 0.070947 0.390478 -0.275608
2005-09-22 07:40:44 51°25.057 2°49.063 -999 0.070947 0.390478 -0.241899
2005-09-22 07:40:50 51°25.066 2°49.097 -999 0.070947 0.390484 -0.241899
2005-09-22 07:40:54 51°25.071 2°49.117 -999 0.070947 0.390484 -0.241899
2005-09-22 07:41:00 51°25.079 2°49.145 -999 0.070947 0.390484 -0.275608
2005-09-22 07:41:04 51°25.084 2°49.166 -999 0.070947 0.390484 -0.275608
2005-09-22 07:41:10 51°25.092 2°49.196 -999 0.070947 0.390484 -0.241899
2005-09-22 07:41:14 51°25.098 2°49.219 -999 0.070947 0.390491 -0.275608
2005-09-22 07:41:20 51°25.105 2°49.247 -999 0.070947 0.390491 -0.275608
2005-09-22 07:41:24 51°25.11 2°49.271 -999 0.070947 0.390491 -0.275608
2005-09-22 07:41:29 51°25.117 2°49.296 -999 0.070947 0.390498 -0.275608
2005-09-22 07:41:34 51°25.123 2°49.322 -999 0.070947 0.390498 -0.275608
2005-09-22 07:41:40 51°25.13 2°49.351 -999 0.070947 0.390498 -0.241899
2005-09-22 07:41:44 51°25.136 2°49.374 -999 0.070947 0.390505 -0.275608
2005-09-22 07:41:50 51°25.143 2°49.402 -999 0.070947 0.390505 -0.275608
2005-09-22 07:41:54 51°25.149 2°49.425 -999 0.070947 0.390505 -0.275608
2005-09-22 07:42:00 51°25.157 2°49.453 -999 0.070947 0.390505 -0.241899
2005-09-22 07:42:05 51°25.163 2°49.479 -999 0.070947 0.390505 -0.241899
2005-09-22 07:42:10 51°25.17 2°49.505 -999 0.070947 0.390512 -0.241899
2005-09-22 07:42:14 51°25.176 2°49.528 -999 0.070947 0.390512 -0.275608
2005-09-22 07:42:20 51°25.184 2°49.559 -999 0.070947 0.390512 -0.275608
2005-09-22 07:42:24 51°25.188 2°49.58 -999 0.070947 0.390519 -0.275608
2005-09-22 07:42:30 51°25.196 2°49.608 -999 0.070947 0.390519 -0.275608
2005-09-22 07:42:34 51°25.202 2°49.632 -999 0.070947 0.390519 -0.275608
2005-09-22 07:42:38 51°25.207 2°49.65 -999 0.070947 0.390526 -0.275608
2005-09-22 07:42:44 51°25.215 2°49.684 -999 0.070947 0.390526 -0.275608
2005-09-22 07:42:50 51°25.222 2°49.712 -999 0.070947 0.390526 -0.275608
2005-09-22 07:42:55 51°25.229 2°49.737 -999 0.070947 0.390533 -0.275608
2005-09-22 07:43:00 51°25.236 2°49.763 -999 0.070947 0.390533 -0.241899
2005-09-22 07:43:05 51°25.242 2°49.789 -999 0.070947 0.390533 -0.241899
2005-09-22 07:43:10 51°25.248 2°49.814 -999 0.070947 0.39054 -0.275608
2005-09-22 07:43:14 51°25.254 2°49.837 -999 0.070947 0.390533 -0.275608
2005-09-22 07:43:20 51°25.261 2°49.864 -999 0.070947 0.39054 -0.241899
2005-09-22 07:43:24 51°25.266 2°49.885 -999 0.070947 0.39054 -0.275608
2005-09-22 07:43:30 51°25.275 2°49.918 -999 0.070947 0.390547 -0.241899
2005-09-22 07:43:35 51°25.281 2°49.941 -999 0.070947 0.390547 -0.241899
2005-09-22 07:43:40 51°25.287 2°49.965 -999 0.070947 0.390547 -0.275608
2005-09-22 07:43:44 51°25.293 2°49.988 -999 0.070947 0.390547 -0.241899
2005-09-22 07:43:50 51°25.3 2°50.016 -999 0.070947 0.390547 -0.275608
2005-09-22 07:43:55 51°25.306 2°50.042 -999 0.070947 0.390554 -0.275608
2005-09-22 07:44:00 51°25.313 2°50.067 -999 0.070947 0.390554 -0.275608
2005-09-22 07:44:04 51°25.319 2°50.09 -999 0.070947 0.390554 -0.275608
2005-09-22 07:44:10 51°25.326 2°50.118 -999 0.070947 0.390561 -0.275608
2005-09-22 07:44:14 51°25.332 2°50.141 -999 0.070947 0.390561 -0.241899
2005-09-22 07:44:20 51°25.339 2°50.169 -999 0.070947 0.390561 -0.241899
2005-09-22 07:44:24 51°25.344 2°50.19 -999 0.070947 0.390561 -0.275608
2005-09-22 07:44:30 51°25.352 2°50.221 -999 0.070947 0.390568 -0.275608
2005-09-22 07:44:34 51°25.357 2°50.244 -999 0.070947 0.390568 -0.275608
2005-09-22 07:44:40 51°25.364 2°50.273 -999 0.070947 0.390568 -0.275608
2005-09-22 07:44:45 51°25.37 2°50.299 -999 0.070947 0.390575 -0.275608
2005-09-22 07:44:49 51°25.376 2°50.322 -999 0.070947 0.390575 -0.275608
2005-09-22 07:44:54 51°25.382 2°50.348 -999 0.070947 0.390575 -0.275608
2005-09-22 07:44:59 51°25.387 2°50.372 -999 0.070947 0.390582 -0.241899
2005-09-22 07:45:05 51°25.395 2°50.404 -999 0.070947 0.390582 -0.241899
2005-09-22 07:45:10 51°25.401 2°50.43 -999 0.070947 0.390582 -0.241899
2005-09-22 07:45:15 51°25.407 2°50.455 -999 0.070947 0.390582 -0.275608
2005-09-22 07:45:20 51°25.413 2°50.481 -999 0.070947 0.390582 -0.275608
2005-09-22 07:45:25 51°25.419 2°50.507 -999 0.070947 0.390589 -0.275608
2005-09-22 07:45:30 51°25.425 2°50.532 -999 0.070947 0.390589 -0.275608
2005-09-22 07:45:35 51°25.431 2°50.558 -999 0.070947 0.390589 -0.275608
2005-09-22 07:45:40 51°25.437 2°50.584 -999 0.070947 0.390589 -0.241899
2005-09-22 07:45:45 51°25.443 2°50.61 -999 0.070947 0.390596 -0.275608
2005-09-22 07:45:50 51°25.449 2°50.636 -999 0.070947 0.390603 -0.275608
2005-09-22 07:45:55 51°25.457 2°50.661 -999 0.070947 0.390596 -0.275608
2005-09-22 07:46:00 51°25.463 2°50.687 -999 0.070947 0.390596 -0.241899
2005-09-22 07:46:04 51°25.469 2°50.71 -999 0.070947 0.390596 -0.241899
2005-09-22 07:46:10 51°25.476 2°50.737 -999 0.070947 0.390603 -0.275608
2005-09-22 07:46:15 51°25.483 2°50.763 -999 0.070947 0.390603 -0.275608
2005-09-22 07:46:20 51°25.489 2°50.789 -999 0.070947 0.390603 -0.275608
2005-09-22 07:46:24 51°25.494 2°50.809 -999 0.070947 0.39061 -0.275608
2005-09-22 07:46:30 51°25.502 2°50.84 -999 0.070947 0.39061 -0.275608
2005-09-22 07:46:34 51°25.508 2°50.863 -999 0.070947 0.39061 -0.275608
2005-09-22 07:46:40 51°25.515 2°50.89 -999 0.070947 0.390617 -0.275608
2005-09-22 07:46:44 51°25.521 2°50.914 -999 0.070947 0.390617 -0.275608
2005-09-22 07:46:50 51°25.528 2°50.942 -999 0.070947 0.390624 -0.275608
2005-09-22 07:46:54 51°25.534 2°50.964 -999 0.070947 0.390624 -0.275608
2005-09-22 07:47:00 51°25.541 2°50.992 -999 0.070947 0.390624 -0.241899
2005-09-22 07:47:05 51°25.548 2°51.018 -999 0.070947 0.390624 -0.241899
2005-09-22 07:47:10 51°25.554 2°51.043 -999 0.070947 0.390624 -0.275608
2005-09-22 07:47:15 51°25.561 2°51.068 -999 0.070947 0.390631 -0.275608
2005-09-22 07:47:20 51°25.567 2°51.093 -999 0.070947 0.390631 -0.275608
2005-09-22 07:47:25 51°25.574 2°51.118 -999 0.070947 0.390631 -0.275608
2005-09-22 07:47:30 51°25.58 2°51.143 -999 0.070947 0.390631 -0.275608
2005-09-22 07:47:34 51°25.586 2°51.166 -999 0.070947 0.390631 -0.275608
2005-09-22 07:47:40 51°25.593 2°51.194 -999 0.070947 0.390638 -0.275608
2005-09-22 07:47:44 51°25.599 2°51.217 -999 0.070947 0.390638 -0.275608
2005-09-22 07:47:50 51°25.606 2°51.248 -999 0.070947 0.390638 -0.275608
2005-09-22 07:47:54 51°25.611 2°51.268 -999 0.070947 0.390645 -0.275608
2005-09-22 07:48:00 51°25.619 2°51.296 -999 0.070947 0.390645 -0.275608
2005-09-22 07:48:05 51°25.625 2°51.322 -999 0.070947 0.390645 -0.275608
2005-09-22 07:48:10 51°25.631 2°51.347 -999 0.070947 0.390645 -0.275608
2005-09-22 07:48:15 51°25.637 2°51.372 -999 0.070947 0.390652 -0.275608
2005-09-22 07:48:19 51°25.642 2°51.393 -999 0.070947 0.390652 -0.275608
2005-09-22 07:48:25 51°25.65 2°51.423 -999 0.070947 0.390652 -0.275608
2005-09-22 07:48:30 51°25.657 2°51.448 -999 0.070947 0.390659 -0.275608
2005-09-22 07:48:34 51°25.663 2°51.471 -999 0.070947 0.390659 -0.275608
2005-09-22 07:48:39 51°25.669 2°51.496 -999 0.070947 0.390659 -0.275608
2005-09-22 07:48:45 51°25.677 2°51.525 -999 0.070947 0.390666 -0.275608
2005-09-22 07:48:50 51°25.684 2°51.55 -999 0.070947 0.390659 -0.275608
2005-09-22 07:48:55 51°25.69 2°51.576 -999 0.070947 0.390666 -0.241899
2005-09-22 07:49:00 51°25.698 2°51.6 -999 0.070947 0.390666 -0.275608
2005-09-22 07:49:04 51°25.703 2°51.623 -999 0.070947 0.390666 -0.275608
2005-09-22 07:49:10 51°25.71 2°51.651 -999 0.070947 0.390666 -0.275608
2005-09-22 07:49:14 51°25.717 2°51.674 -999 0.070844 0.390087 -0.275608
2005-09-22 07:49:19 51°25.724 2°51.699 -999 0.070947 0.390673 -0.275608
2005-09-22 07:49:24 51°25.73 2°51.724 -999 0.070947 0.390673 -0.275608
2005-09-22 07:49:30 51°25.738 2°51.751 -999 0.070947 0.39068 -0.275608
2005-09-22 07:49:34 51°25.744 2°51.775 -999 0.070947 0.39068 -0.275608
2005-09-22 07:49:40 51°25.751 2°51.805 -999 0.070947 0.39068 -0.275608
2005-09-22 07:49:44 51°25.757 2°51.828 -999 0.070844 0.390101 -0.275608
2005-09-22 07:49:50 51°25.764 2°51.856 -999 0.070947 0.390687 -0.241899
2005-09-22 07:49:54 51°25.77 2°51.879 -999 0.070947 0.390687 -0.275608
2005-09-22 07:50:00 51°25.777 2°51.906 -999 0.070947 0.390694 -0.275608
2005-09-22 07:50:05 51°25.783 2°51.932 -999 0.070947 0.390694 -0.275608
2005-09-22 07:50:10 51°25.79 2°51.957 -999 0.070844 0.390108 -0.275608